<?xml version="1.0" encoding="UTF-8" standalone="no" ?>
<gpx xmlns="http://www.topografix.com/GPX/1/1" xmlns:xsi="http://www.w3.org/2001/XMLSchema-instance" xsi:schemaLocation="http://www.topografix.com/GPX/1/1 http://www.topografix.com/GPX/1/1/gpx.xsd" version="1.1" creator="VisuGPX - https://www.visugpx.com">
  <metadata>
    <name>FRONS LA VALLEE DU CONGORBES</name>
  </metadata>
  <trk>
    <name><![CDATA[FRONS LA VALLEE DU CONGORBES]]></name>
    <extensions>
      <line xmlns="http://www.topografix.com/GPX/gpx_style/0/2">
        <width>4</width>
      </line>
    </extensions>
    <trkseg>
      <trkpt lat="44.19422" lon="2.41564">
        <ele>568.8</ele>
        <time>2017-01-10T13:04:59.000Z</time>
      </trkpt>
      <trkpt lat="44.19413" lon="2.41565">
        <ele>569.7</ele>
        <time>2017-01-10T13:07:05.000Z</time>
      </trkpt>
      <trkpt lat="44.19404" lon="2.41561">
        <ele>569.7</ele>
        <time>2017-01-10T13:07:16.000Z</time>
      </trkpt>
      <trkpt lat="44.19396" lon="2.41567">
        <ele>570.7</ele>
        <time>2017-01-10T13:07:27.000Z</time>
      </trkpt>
      <trkpt lat="44.19395" lon="2.4158">
        <ele>569.7</ele>
        <time>2017-01-10T13:07:37.000Z</time>
      </trkpt>
      <trkpt lat="44.194" lon="2.41592">
        <ele>568.8</ele>
        <time>2017-01-10T13:07:46.000Z</time>
      </trkpt>
      <trkpt lat="44.19405" lon="2.41602">
        <ele>567.3</ele>
        <time>2017-01-10T13:07:54.000Z</time>
      </trkpt>
      <trkpt lat="44.1941" lon="2.41615">
        <ele>566.8</ele>
        <time>2017-01-10T13:08:03.000Z</time>
      </trkpt>
      <trkpt lat="44.19413" lon="2.41628">
        <ele>565.9</ele>
        <time>2017-01-10T13:08:11.000Z</time>
      </trkpt>
      <trkpt lat="44.19414" lon="2.41642">
        <ele>564.4</ele>
        <time>2017-01-10T13:08:20.000Z</time>
      </trkpt>
      <trkpt lat="44.19417" lon="2.41656">
        <ele>563.5</ele>
        <time>2017-01-10T13:08:29.000Z</time>
      </trkpt>
      <trkpt lat="44.19421" lon="2.41669">
        <ele>562.5</ele>
        <time>2017-01-10T13:08:38.000Z</time>
      </trkpt>
      <trkpt lat="44.19429" lon="2.41674">
        <ele>561.1</ele>
        <time>2017-01-10T13:08:48.000Z</time>
      </trkpt>
      <trkpt lat="44.1944" lon="2.41672">
        <ele>560.1</ele>
        <time>2017-01-10T13:08:57.000Z</time>
      </trkpt>
      <trkpt lat="44.19448" lon="2.41666">
        <ele>559.6</ele>
        <time>2017-01-10T13:09:05.000Z</time>
      </trkpt>
      <trkpt lat="44.19455" lon="2.41657">
        <ele>558.7</ele>
        <time>2017-01-10T13:09:13.000Z</time>
      </trkpt>
      <trkpt lat="44.19463" lon="2.41648">
        <ele>558.2</ele>
        <time>2017-01-10T13:09:21.000Z</time>
      </trkpt>
      <trkpt lat="44.19471" lon="2.4164">
        <ele>557.2</ele>
        <time>2017-01-10T13:09:29.000Z</time>
      </trkpt>
      <trkpt lat="44.19479" lon="2.41632">
        <ele>556.3</ele>
        <time>2017-01-10T13:09:37.000Z</time>
      </trkpt>
      <trkpt lat="44.19487" lon="2.41623">
        <ele>555.3</ele>
        <time>2017-01-10T13:09:46.000Z</time>
      </trkpt>
      <trkpt lat="44.19495" lon="2.41612">
        <ele>553.4</ele>
        <time>2017-01-10T13:09:54.000Z</time>
      </trkpt>
      <trkpt lat="44.19505" lon="2.41604">
        <ele>552.4</ele>
        <time>2017-01-10T13:10:03.000Z</time>
      </trkpt>
      <trkpt lat="44.19515" lon="2.416">
        <ele>551.5</ele>
        <time>2017-01-10T13:10:12.000Z</time>
      </trkpt>
      <trkpt lat="44.19526" lon="2.41598">
        <ele>550.5</ele>
        <time>2017-01-10T13:10:21.000Z</time>
      </trkpt>
      <trkpt lat="44.19536" lon="2.41601">
        <ele>549</ele>
        <time>2017-01-10T13:10:29.000Z</time>
      </trkpt>
      <trkpt lat="44.19544" lon="2.41608">
        <ele>549</ele>
        <time>2017-01-10T13:10:37.000Z</time>
      </trkpt>
      <trkpt lat="44.19549" lon="2.41623">
        <ele>548.6</ele>
        <time>2017-01-10T13:10:46.000Z</time>
      </trkpt>
      <trkpt lat="44.19551" lon="2.41638">
        <ele>548.6</ele>
        <time>2017-01-10T13:10:55.000Z</time>
      </trkpt>
      <trkpt lat="44.19553" lon="2.41653">
        <ele>548.1</ele>
        <time>2017-01-10T13:11:04.000Z</time>
      </trkpt>
      <trkpt lat="44.19555" lon="2.41667">
        <ele>548.1</ele>
        <time>2017-01-10T13:11:12.000Z</time>
      </trkpt>
      <trkpt lat="44.1956" lon="2.41679">
        <ele>548.1</ele>
        <time>2017-01-10T13:11:20.000Z</time>
      </trkpt>
      <trkpt lat="44.19567" lon="2.41688">
        <ele>548.1</ele>
        <time>2017-01-10T13:11:28.000Z</time>
      </trkpt>
      <trkpt lat="44.19577" lon="2.41694">
        <ele>548.1</ele>
        <time>2017-01-10T13:11:36.000Z</time>
      </trkpt>
      <trkpt lat="44.19587" lon="2.41696">
        <ele>547.6</ele>
        <time>2017-01-10T13:11:44.000Z</time>
      </trkpt>
      <trkpt lat="44.19596" lon="2.41698">
        <ele>547.6</ele>
        <time>2017-01-10T13:11:52.000Z</time>
      </trkpt>
      <trkpt lat="44.19607" lon="2.417">
        <ele>547.1</ele>
        <time>2017-01-10T13:12:01.000Z</time>
      </trkpt>
      <trkpt lat="44.19617" lon="2.41703">
        <ele>546.2</ele>
        <time>2017-01-10T13:12:09.000Z</time>
      </trkpt>
      <trkpt lat="44.19627" lon="2.41703">
        <ele>545.2</ele>
        <time>2017-01-10T13:12:17.000Z</time>
      </trkpt>
      <trkpt lat="44.19638" lon="2.41705">
        <ele>544.2</ele>
        <time>2017-01-10T13:12:25.000Z</time>
      </trkpt>
      <trkpt lat="44.19649" lon="2.41707">
        <ele>543.8</ele>
        <time>2017-01-10T13:12:34.000Z</time>
      </trkpt>
      <trkpt lat="44.1966" lon="2.41709">
        <ele>543.8</ele>
        <time>2017-01-10T13:12:43.000Z</time>
      </trkpt>
      <trkpt lat="44.1967" lon="2.41712">
        <ele>543.3</ele>
        <time>2017-01-10T13:12:51.000Z</time>
      </trkpt>
      <trkpt lat="44.1968" lon="2.41721">
        <ele>542.8</ele>
        <time>2017-01-10T13:13:00.000Z</time>
      </trkpt>
      <trkpt lat="44.19686" lon="2.41735">
        <ele>542.8</ele>
        <time>2017-01-10T13:13:10.000Z</time>
      </trkpt>
      <trkpt lat="44.19689" lon="2.4175">
        <ele>542.8</ele>
        <time>2017-01-10T13:13:19.000Z</time>
      </trkpt>
      <trkpt lat="44.1969" lon="2.41765">
        <ele>544.2</ele>
        <time>2017-01-10T13:13:28.000Z</time>
      </trkpt>
      <trkpt lat="44.1969" lon="2.41785">
        <ele>544.7</ele>
        <time>2017-01-10T13:13:38.000Z</time>
      </trkpt>
      <trkpt lat="44.19692" lon="2.418">
        <ele>546.2</ele>
        <time>2017-01-10T13:13:48.000Z</time>
      </trkpt>
      <trkpt lat="44.19693" lon="2.41816">
        <ele>546.7</ele>
        <time>2017-01-10T13:13:57.000Z</time>
      </trkpt>
      <trkpt lat="44.19695" lon="2.4183">
        <ele>547.6</ele>
        <time>2017-01-10T13:14:06.000Z</time>
      </trkpt>
      <trkpt lat="44.19698" lon="2.41845">
        <ele>548.1</ele>
        <time>2017-01-10T13:14:15.000Z</time>
      </trkpt>
      <trkpt lat="44.19701" lon="2.41858">
        <ele>548.6</ele>
        <time>2017-01-10T13:14:23.000Z</time>
      </trkpt>
      <trkpt lat="44.19703" lon="2.4187">
        <ele>548.6</ele>
        <time>2017-01-10T13:14:31.000Z</time>
      </trkpt>
      <trkpt lat="44.19705" lon="2.41883">
        <ele>549</ele>
        <time>2017-01-10T13:14:39.000Z</time>
      </trkpt>
      <trkpt lat="44.19707" lon="2.41896">
        <ele>549</ele>
        <time>2017-01-10T13:14:47.000Z</time>
      </trkpt>
      <trkpt lat="44.19709" lon="2.41909">
        <ele>549</ele>
        <time>2017-01-10T13:14:55.000Z</time>
      </trkpt>
      <trkpt lat="44.19711" lon="2.41922">
        <ele>549</ele>
        <time>2017-01-10T13:15:03.000Z</time>
      </trkpt>
      <trkpt lat="44.19713" lon="2.41935">
        <ele>550</ele>
        <time>2017-01-10T13:15:12.000Z</time>
      </trkpt>
      <trkpt lat="44.19714" lon="2.41949">
        <ele>550</ele>
        <time>2017-01-10T13:15:21.000Z</time>
      </trkpt>
      <trkpt lat="44.19716" lon="2.41963">
        <ele>551.5</ele>
        <time>2017-01-10T13:15:29.000Z</time>
      </trkpt>
      <trkpt lat="44.19717" lon="2.41976">
        <ele>551.9</ele>
        <time>2017-01-10T13:15:37.000Z</time>
      </trkpt>
      <trkpt lat="44.19719" lon="2.41991">
        <ele>552.4</ele>
        <time>2017-01-10T13:15:46.000Z</time>
      </trkpt>
      <trkpt lat="44.19721" lon="2.42006">
        <ele>553.4</ele>
        <time>2017-01-10T13:15:55.000Z</time>
      </trkpt>
      <trkpt lat="44.19722" lon="2.4202">
        <ele>553.4</ele>
        <time>2017-01-10T13:16:03.000Z</time>
      </trkpt>
      <trkpt lat="44.19722" lon="2.42035">
        <ele>553.9</ele>
        <time>2017-01-10T13:16:12.000Z</time>
      </trkpt>
      <trkpt lat="44.1972" lon="2.42049">
        <ele>554.8</ele>
        <time>2017-01-10T13:16:21.000Z</time>
      </trkpt>
      <trkpt lat="44.19717" lon="2.42063">
        <ele>555.3</ele>
        <time>2017-01-10T13:16:30.000Z</time>
      </trkpt>
      <trkpt lat="44.19716" lon="2.42077">
        <ele>556.3</ele>
        <time>2017-01-10T13:16:39.000Z</time>
      </trkpt>
      <trkpt lat="44.19713" lon="2.4209">
        <ele>556.7</ele>
        <time>2017-01-10T13:16:47.000Z</time>
      </trkpt>
      <trkpt lat="44.19711" lon="2.42104">
        <ele>556.7</ele>
        <time>2017-01-10T13:16:56.000Z</time>
      </trkpt>
      <trkpt lat="44.19709" lon="2.42116">
        <ele>557.2</ele>
        <time>2017-01-10T13:17:04.000Z</time>
      </trkpt>
      <trkpt lat="44.19706" lon="2.4213">
        <ele>557.7</ele>
        <time>2017-01-10T13:17:12.000Z</time>
      </trkpt>
      <trkpt lat="44.19705" lon="2.42144">
        <ele>558.2</ele>
        <time>2017-01-10T13:17:20.000Z</time>
      </trkpt>
      <trkpt lat="44.19703" lon="2.42157">
        <ele>558.7</ele>
        <time>2017-01-10T13:17:29.000Z</time>
      </trkpt>
      <trkpt lat="44.19701" lon="2.42171">
        <ele>558.7</ele>
        <time>2017-01-10T13:17:38.000Z</time>
      </trkpt>
      <trkpt lat="44.19699" lon="2.42183">
        <ele>558.7</ele>
        <time>2017-01-10T13:17:46.000Z</time>
      </trkpt>
      <trkpt lat="44.19697" lon="2.42195">
        <ele>558.7</ele>
        <time>2017-01-10T13:17:54.000Z</time>
      </trkpt>
      <trkpt lat="44.19695" lon="2.42208">
        <ele>558.7</ele>
        <time>2017-01-10T13:18:02.000Z</time>
      </trkpt>
      <trkpt lat="44.19692" lon="2.42221">
        <ele>556.7</ele>
        <time>2017-01-10T13:18:10.000Z</time>
      </trkpt>
      <trkpt lat="44.1969" lon="2.42234">
        <ele>556.7</ele>
        <time>2017-01-10T13:18:18.000Z</time>
      </trkpt>
      <trkpt lat="44.19688" lon="2.42247">
        <ele>556.7</ele>
        <time>2017-01-10T13:18:26.000Z</time>
      </trkpt>
      <trkpt lat="44.19686" lon="2.42261">
        <ele>556.7</ele>
        <time>2017-01-10T13:18:34.000Z</time>
      </trkpt>
      <trkpt lat="44.19683" lon="2.42274">
        <ele>556.3</ele>
        <time>2017-01-10T13:18:42.000Z</time>
      </trkpt>
      <trkpt lat="44.19681" lon="2.42288">
        <ele>555.8</ele>
        <time>2017-01-10T13:18:50.000Z</time>
      </trkpt>
      <trkpt lat="44.19678" lon="2.42301">
        <ele>555.8</ele>
        <time>2017-01-10T13:18:58.000Z</time>
      </trkpt>
      <trkpt lat="44.19675" lon="2.42314">
        <ele>555.8</ele>
        <time>2017-01-10T13:19:06.000Z</time>
      </trkpt>
      <trkpt lat="44.19672" lon="2.42328">
        <ele>555.3</ele>
        <time>2017-01-10T13:19:14.000Z</time>
      </trkpt>
      <trkpt lat="44.19668" lon="2.42341">
        <ele>555.3</ele>
        <time>2017-01-10T13:19:22.000Z</time>
      </trkpt>
      <trkpt lat="44.19663" lon="2.42354">
        <ele>555.3</ele>
        <time>2017-01-10T13:19:30.000Z</time>
      </trkpt>
      <trkpt lat="44.19657" lon="2.42365">
        <ele>555.3</ele>
        <time>2017-01-10T13:19:38.000Z</time>
      </trkpt>
      <trkpt lat="44.1965" lon="2.42377">
        <ele>555.3</ele>
        <time>2017-01-10T13:19:46.000Z</time>
      </trkpt>
      <trkpt lat="44.19645" lon="2.42388">
        <ele>555.3</ele>
        <time>2017-01-10T13:19:53.000Z</time>
      </trkpt>
      <trkpt lat="44.19639" lon="2.424">
        <ele>555.3</ele>
        <time>2017-01-10T13:20:01.000Z</time>
      </trkpt>
      <trkpt lat="44.19634" lon="2.4241">
        <ele>555.3</ele>
        <time>2017-01-10T13:20:08.000Z</time>
      </trkpt>
      <trkpt lat="44.19628" lon="2.42421">
        <ele>555.3</ele>
        <time>2017-01-10T13:20:16.000Z</time>
      </trkpt>
      <trkpt lat="44.19623" lon="2.42433">
        <ele>555.3</ele>
        <time>2017-01-10T13:20:24.000Z</time>
      </trkpt>
      <trkpt lat="44.19618" lon="2.42444">
        <ele>555.3</ele>
        <time>2017-01-10T13:20:32.000Z</time>
      </trkpt>
      <trkpt lat="44.19613" lon="2.42456">
        <ele>555.3</ele>
        <time>2017-01-10T13:20:40.000Z</time>
      </trkpt>
      <trkpt lat="44.19608" lon="2.42468">
        <ele>555.3</ele>
        <time>2017-01-10T13:20:48.000Z</time>
      </trkpt>
      <trkpt lat="44.19602" lon="2.4248">
        <ele>556.3</ele>
        <time>2017-01-10T13:20:56.000Z</time>
      </trkpt>
      <trkpt lat="44.19596" lon="2.42492">
        <ele>556.7</ele>
        <time>2017-01-10T13:21:04.000Z</time>
      </trkpt>
      <trkpt lat="44.19592" lon="2.42503">
        <ele>556.7</ele>
        <time>2017-01-10T13:21:12.000Z</time>
      </trkpt>
      <trkpt lat="44.19587" lon="2.42514">
        <ele>556.7</ele>
        <time>2017-01-10T13:21:20.000Z</time>
      </trkpt>
      <trkpt lat="44.19581" lon="2.42526">
        <ele>557.2</ele>
        <time>2017-01-10T13:21:28.000Z</time>
      </trkpt>
      <trkpt lat="44.19576" lon="2.42538">
        <ele>558.7</ele>
        <time>2017-01-10T13:21:36.000Z</time>
      </trkpt>
      <trkpt lat="44.19572" lon="2.4255">
        <ele>558.7</ele>
        <time>2017-01-10T13:21:44.000Z</time>
      </trkpt>
      <trkpt lat="44.19568" lon="2.42561">
        <ele>558.7</ele>
        <time>2017-01-10T13:21:52.000Z</time>
      </trkpt>
      <trkpt lat="44.19562" lon="2.42573">
        <ele>558.7</ele>
        <time>2017-01-10T13:22:00.000Z</time>
      </trkpt>
      <trkpt lat="44.19558" lon="2.42584">
        <ele>559.6</ele>
        <time>2017-01-10T13:22:08.000Z</time>
      </trkpt>
      <trkpt lat="44.19553" lon="2.42596">
        <ele>559.6</ele>
        <time>2017-01-10T13:22:16.000Z</time>
      </trkpt>
      <trkpt lat="44.19548" lon="2.42607">
        <ele>559.6</ele>
        <time>2017-01-10T13:22:24.000Z</time>
      </trkpt>
      <trkpt lat="44.19544" lon="2.4262">
        <ele>560.1</ele>
        <time>2017-01-10T13:22:32.000Z</time>
      </trkpt>
      <trkpt lat="44.19539" lon="2.42632">
        <ele>560.1</ele>
        <time>2017-01-10T13:22:40.000Z</time>
      </trkpt>
      <trkpt lat="44.19534" lon="2.42644">
        <ele>560.1</ele>
        <time>2017-01-10T13:22:48.000Z</time>
      </trkpt>
      <trkpt lat="44.19532" lon="2.42657">
        <ele>558.7</ele>
        <time>2017-01-10T13:22:57.000Z</time>
      </trkpt>
      <trkpt lat="44.19536" lon="2.4267">
        <ele>558.2</ele>
        <time>2017-01-10T13:23:06.000Z</time>
      </trkpt>
      <trkpt lat="44.19546" lon="2.42672">
        <ele>559.6</ele>
        <time>2017-01-10T13:23:15.000Z</time>
      </trkpt>
      <trkpt lat="44.19556" lon="2.42669">
        <ele>560.1</ele>
        <time>2017-01-10T13:23:23.000Z</time>
      </trkpt>
      <trkpt lat="44.19564" lon="2.42667">
        <ele>560.6</ele>
        <time>2017-01-10T13:23:31.000Z</time>
      </trkpt>
      <trkpt lat="44.19574" lon="2.42662">
        <ele>560.6</ele>
        <time>2017-01-10T13:23:39.000Z</time>
      </trkpt>
      <trkpt lat="44.19583" lon="2.42658">
        <ele>561.1</ele>
        <time>2017-01-10T13:23:47.000Z</time>
      </trkpt>
      <trkpt lat="44.19592" lon="2.42651">
        <ele>561.1</ele>
        <time>2017-01-10T13:23:55.000Z</time>
      </trkpt>
      <trkpt lat="44.19601" lon="2.42646">
        <ele>561.1</ele>
        <time>2017-01-10T13:24:03.000Z</time>
      </trkpt>
      <trkpt lat="44.1961" lon="2.42641">
        <ele>562</ele>
        <time>2017-01-10T13:24:11.000Z</time>
      </trkpt>
      <trkpt lat="44.19619" lon="2.42636">
        <ele>562</ele>
        <time>2017-01-10T13:24:19.000Z</time>
      </trkpt>
      <trkpt lat="44.19628" lon="2.42632">
        <ele>562.5</ele>
        <time>2017-01-10T13:24:27.000Z</time>
      </trkpt>
      <trkpt lat="44.19637" lon="2.42627">
        <ele>562.5</ele>
        <time>2017-01-10T13:24:36.000Z</time>
      </trkpt>
      <trkpt lat="44.19646" lon="2.42624">
        <ele>562.5</ele>
        <time>2017-01-10T13:24:45.000Z</time>
      </trkpt>
      <trkpt lat="44.19656" lon="2.42622">
        <ele>562.5</ele>
        <time>2017-01-10T13:24:53.000Z</time>
      </trkpt>
      <trkpt lat="44.19666" lon="2.4262">
        <ele>562.5</ele>
        <time>2017-01-10T13:25:02.000Z</time>
      </trkpt>
      <trkpt lat="44.19675" lon="2.42619">
        <ele>560.6</ele>
        <time>2017-01-10T13:25:12.000Z</time>
      </trkpt>
      <trkpt lat="44.19686" lon="2.42615">
        <ele>560.6</ele>
        <time>2017-01-10T13:25:20.000Z</time>
      </trkpt>
      <trkpt lat="44.19696" lon="2.42613">
        <ele>560.6</ele>
        <time>2017-01-10T13:25:28.000Z</time>
      </trkpt>
      <trkpt lat="44.19707" lon="2.42609">
        <ele>559.6</ele>
        <time>2017-01-10T13:25:36.000Z</time>
      </trkpt>
      <trkpt lat="44.19717" lon="2.42606">
        <ele>558.7</ele>
        <time>2017-01-10T13:25:44.000Z</time>
      </trkpt>
      <trkpt lat="44.19726" lon="2.42602">
        <ele>558.2</ele>
        <time>2017-01-10T13:25:52.000Z</time>
      </trkpt>
      <trkpt lat="44.19734" lon="2.42604">
        <ele>556.7</ele>
        <time>2017-01-10T13:26:01.000Z</time>
      </trkpt>
      <trkpt lat="44.19739" lon="2.42614">
        <ele>556.3</ele>
        <time>2017-01-10T13:26:19.000Z</time>
      </trkpt>
      <trkpt lat="44.19744" lon="2.42625">
        <ele>555.3</ele>
        <time>2017-01-10T13:26:28.000Z</time>
      </trkpt>
      <trkpt lat="44.1975" lon="2.42638">
        <ele>553.4</ele>
        <time>2017-01-10T13:26:37.000Z</time>
      </trkpt>
      <trkpt lat="44.19756" lon="2.4265">
        <ele>551.9</ele>
        <time>2017-01-10T13:26:46.000Z</time>
      </trkpt>
      <trkpt lat="44.19762" lon="2.42662">
        <ele>550.5</ele>
        <time>2017-01-10T13:26:55.000Z</time>
      </trkpt>
      <trkpt lat="44.19768" lon="2.42675">
        <ele>548.6</ele>
        <time>2017-01-10T13:27:04.000Z</time>
      </trkpt>
      <trkpt lat="44.19775" lon="2.42689">
        <ele>547.1</ele>
        <time>2017-01-10T13:27:14.000Z</time>
      </trkpt>
      <trkpt lat="44.19783" lon="2.42699">
        <ele>545.7</ele>
        <time>2017-01-10T13:27:23.000Z</time>
      </trkpt>
      <trkpt lat="44.19792" lon="2.42703">
        <ele>543.8</ele>
        <time>2017-01-10T13:27:31.000Z</time>
      </trkpt>
      <trkpt lat="44.19803" lon="2.42704">
        <ele>541.8</ele>
        <time>2017-01-10T13:27:40.000Z</time>
      </trkpt>
      <trkpt lat="44.19812" lon="2.427">
        <ele>540.9</ele>
        <time>2017-01-10T13:27:49.000Z</time>
      </trkpt>
      <trkpt lat="44.19821" lon="2.42694">
        <ele>538.5</ele>
        <time>2017-01-10T13:27:57.000Z</time>
      </trkpt>
      <trkpt lat="44.1983" lon="2.42688">
        <ele>537.5</ele>
        <time>2017-01-10T13:28:06.000Z</time>
      </trkpt>
      <trkpt lat="44.19839" lon="2.4268">
        <ele>535.6</ele>
        <time>2017-01-10T13:28:14.000Z</time>
      </trkpt>
      <trkpt lat="44.19848" lon="2.42673">
        <ele>534.6</ele>
        <time>2017-01-10T13:28:23.000Z</time>
      </trkpt>
      <trkpt lat="44.19857" lon="2.42665">
        <ele>533.7</ele>
        <time>2017-01-10T13:28:31.000Z</time>
      </trkpt>
      <trkpt lat="44.19865" lon="2.42657">
        <ele>531.7</ele>
        <time>2017-01-10T13:28:40.000Z</time>
      </trkpt>
      <trkpt lat="44.19873" lon="2.42649">
        <ele>530.3</ele>
        <time>2017-01-10T13:28:48.000Z</time>
      </trkpt>
      <trkpt lat="44.1988" lon="2.4264">
        <ele>528.4</ele>
        <time>2017-01-10T13:28:57.000Z</time>
      </trkpt>
      <trkpt lat="44.19885" lon="2.4263">
        <ele>527.9</ele>
        <time>2017-01-10T13:29:06.000Z</time>
      </trkpt>
      <trkpt lat="44.1989" lon="2.42617">
        <ele>526.5</ele>
        <time>2017-01-10T13:29:16.000Z</time>
      </trkpt>
      <trkpt lat="44.19896" lon="2.42602">
        <ele>524.5</ele>
        <time>2017-01-10T13:29:27.000Z</time>
      </trkpt>
      <trkpt lat="44.19902" lon="2.4259">
        <ele>523.1</ele>
        <time>2017-01-10T13:29:37.000Z</time>
      </trkpt>
      <trkpt lat="44.19909" lon="2.42592">
        <ele>521.2</ele>
        <time>2017-01-10T13:29:48.000Z</time>
      </trkpt>
      <trkpt lat="44.1991" lon="2.42609">
        <ele>519.2</ele>
        <time>2017-01-10T13:29:59.000Z</time>
      </trkpt>
      <trkpt lat="44.19909" lon="2.42624">
        <ele>518.3</ele>
        <time>2017-01-10T13:30:12.000Z</time>
      </trkpt>
      <trkpt lat="44.19911" lon="2.42641">
        <ele>515.9</ele>
        <time>2017-01-10T13:30:25.000Z</time>
      </trkpt>
      <trkpt lat="44.19911" lon="2.42656">
        <ele>514.4</ele>
        <time>2017-01-10T13:30:35.000Z</time>
      </trkpt>
      <trkpt lat="44.19911" lon="2.42683">
        <ele>511.6</ele>
        <time>2017-01-10T13:30:51.000Z</time>
      </trkpt>
      <trkpt lat="44.19911" lon="2.42701">
        <ele>510.1</ele>
        <time>2017-01-10T13:31:03.000Z</time>
      </trkpt>
      <trkpt lat="44.19909" lon="2.42717">
        <ele>507.2</ele>
        <time>2017-01-10T13:31:17.000Z</time>
      </trkpt>
      <trkpt lat="44.19905" lon="2.42733">
        <ele>505.3</ele>
        <time>2017-01-10T13:31:28.000Z</time>
      </trkpt>
      <trkpt lat="44.19904" lon="2.42748">
        <ele>503.4</ele>
        <time>2017-01-10T13:31:39.000Z</time>
      </trkpt>
      <trkpt lat="44.19902" lon="2.42766">
        <ele>500.5</ele>
        <time>2017-01-10T13:31:52.000Z</time>
      </trkpt>
      <trkpt lat="44.19901" lon="2.42785">
        <ele>498.1</ele>
        <time>2017-01-10T13:32:05.000Z</time>
      </trkpt>
      <trkpt lat="44.19901" lon="2.42803">
        <ele>495.2</ele>
        <time>2017-01-10T13:32:21.000Z</time>
      </trkpt>
      <trkpt lat="44.19903" lon="2.42818">
        <ele>493.3</ele>
        <time>2017-01-10T13:32:37.000Z</time>
      </trkpt>
      <trkpt lat="44.19898" lon="2.42834">
        <ele>490.4</ele>
        <time>2017-01-10T13:32:51.000Z</time>
      </trkpt>
      <trkpt lat="44.1989" lon="2.42851">
        <ele>488.5</ele>
        <time>2017-01-10T13:33:04.000Z</time>
      </trkpt>
      <trkpt lat="44.19882" lon="2.42864">
        <ele>486.1</ele>
        <time>2017-01-10T13:33:18.000Z</time>
      </trkpt>
      <trkpt lat="44.1988" lon="2.42881">
        <ele>484.2</ele>
        <time>2017-01-10T13:33:38.000Z</time>
      </trkpt>
      <trkpt lat="44.1988" lon="2.42899">
        <ele>481.8</ele>
        <time>2017-01-10T13:34:13.000Z</time>
      </trkpt>
      <trkpt lat="44.1987" lon="2.42902">
        <ele>480.3</ele>
        <time>2017-01-10T13:34:21.000Z</time>
      </trkpt>
      <trkpt lat="44.19859" lon="2.42903">
        <ele>479.4</ele>
        <time>2017-01-10T13:34:30.000Z</time>
      </trkpt>
      <trkpt lat="44.19847" lon="2.42907">
        <ele>478.4</ele>
        <time>2017-01-10T13:34:40.000Z</time>
      </trkpt>
      <trkpt lat="44.19853" lon="2.42919">
        <ele>478.4</ele>
        <time>2017-01-10T13:34:55.000Z</time>
      </trkpt>
      <trkpt lat="44.19864" lon="2.42924">
        <ele>477.9</ele>
        <time>2017-01-10T13:35:07.000Z</time>
      </trkpt>
      <trkpt lat="44.19878" lon="2.42924">
        <ele>479.8</ele>
        <time>2017-01-10T13:35:18.000Z</time>
      </trkpt>
      <trkpt lat="44.19889" lon="2.42923">
        <ele>481.3</ele>
        <time>2017-01-10T13:35:28.000Z</time>
      </trkpt>
      <trkpt lat="44.19899" lon="2.42922">
        <ele>482.2</ele>
        <time>2017-01-10T13:35:37.000Z</time>
      </trkpt>
      <trkpt lat="44.19908" lon="2.42919">
        <ele>485.1</ele>
        <time>2017-01-10T13:35:51.000Z</time>
      </trkpt>
      <trkpt lat="44.19922" lon="2.4291">
        <ele>487.5</ele>
        <time>2017-01-10T13:36:07.000Z</time>
      </trkpt>
      <trkpt lat="44.19929" lon="2.42897">
        <ele>489.5</ele>
        <time>2017-01-10T13:36:21.000Z</time>
      </trkpt>
      <trkpt lat="44.19935" lon="2.42882">
        <ele>489.9</ele>
        <time>2017-01-10T13:36:34.000Z</time>
      </trkpt>
      <trkpt lat="44.19941" lon="2.42868">
        <ele>490.9</ele>
        <time>2017-01-10T13:36:49.000Z</time>
      </trkpt>
      <trkpt lat="44.19948" lon="2.42851">
        <ele>491.9</ele>
        <time>2017-01-10T13:37:01.000Z</time>
      </trkpt>
      <trkpt lat="44.19953" lon="2.42837">
        <ele>492.3</ele>
        <time>2017-01-10T13:37:12.000Z</time>
      </trkpt>
      <trkpt lat="44.19962" lon="2.42821">
        <ele>493.3</ele>
        <time>2017-01-10T13:37:23.000Z</time>
      </trkpt>
      <trkpt lat="44.19971" lon="2.42804">
        <ele>494.3</ele>
        <time>2017-01-10T13:37:34.000Z</time>
      </trkpt>
      <trkpt lat="44.19976" lon="2.42788">
        <ele>494.7</ele>
        <time>2017-01-10T13:37:45.000Z</time>
      </trkpt>
      <trkpt lat="44.19982" lon="2.42776">
        <ele>496.2</ele>
        <time>2017-01-10T13:37:56.000Z</time>
      </trkpt>
      <trkpt lat="44.19987" lon="2.42762">
        <ele>498.1</ele>
        <time>2017-01-10T13:38:08.000Z</time>
      </trkpt>
      <trkpt lat="44.19995" lon="2.42757">
        <ele>500</ele>
        <time>2017-01-10T13:38:20.000Z</time>
      </trkpt>
      <trkpt lat="44.19994" lon="2.42773">
        <ele>501.5</ele>
        <time>2017-01-10T13:38:32.000Z</time>
      </trkpt>
      <trkpt lat="44.1999" lon="2.42786">
        <ele>502.9</ele>
        <time>2017-01-10T13:38:44.000Z</time>
      </trkpt>
      <trkpt lat="44.19987" lon="2.428">
        <ele>504.4</ele>
        <time>2017-01-10T13:38:56.000Z</time>
      </trkpt>
      <trkpt lat="44.19984" lon="2.42815">
        <ele>505.8</ele>
        <time>2017-01-10T13:39:09.000Z</time>
      </trkpt>
      <trkpt lat="44.19982" lon="2.42831">
        <ele>507.7</ele>
        <time>2017-01-10T13:39:22.000Z</time>
      </trkpt>
      <trkpt lat="44.19978" lon="2.42846">
        <ele>508.2</ele>
        <time>2017-01-10T13:39:35.000Z</time>
      </trkpt>
      <trkpt lat="44.19974" lon="2.42861">
        <ele>507.7</ele>
        <time>2017-01-10T13:39:48.000Z</time>
      </trkpt>
      <trkpt lat="44.19969" lon="2.42877">
        <ele>507.7</ele>
        <time>2017-01-10T13:40:02.000Z</time>
      </trkpt>
      <trkpt lat="44.19964" lon="2.42895">
        <ele>507.7</ele>
        <time>2017-01-10T13:40:14.000Z</time>
      </trkpt>
      <trkpt lat="44.19958" lon="2.42914">
        <ele>508.2</ele>
        <time>2017-01-10T13:40:27.000Z</time>
      </trkpt>
      <trkpt lat="44.19953" lon="2.42929">
        <ele>508.7</ele>
        <time>2017-01-10T13:40:41.000Z</time>
      </trkpt>
      <trkpt lat="44.19944" lon="2.42945">
        <ele>510.1</ele>
        <time>2017-01-10T13:40:55.000Z</time>
      </trkpt>
      <trkpt lat="44.19937" lon="2.42957">
        <ele>512</ele>
        <time>2017-01-10T13:41:08.000Z</time>
      </trkpt>
      <trkpt lat="44.19926" lon="2.42974">
        <ele>513.5</ele>
        <time>2017-01-10T13:41:22.000Z</time>
      </trkpt>
      <trkpt lat="44.19915" lon="2.42982">
        <ele>514.4</ele>
        <time>2017-01-10T13:41:35.000Z</time>
      </trkpt>
      <trkpt lat="44.19902" lon="2.42995">
        <ele>515.9</ele>
        <time>2017-01-10T13:41:55.000Z</time>
      </trkpt>
      <trkpt lat="44.19892" lon="2.43002">
        <ele>517.8</ele>
        <time>2017-01-10T13:42:06.000Z</time>
      </trkpt>
      <trkpt lat="44.19883" lon="2.4301">
        <ele>519.2</ele>
        <time>2017-01-10T13:42:16.000Z</time>
      </trkpt>
      <trkpt lat="44.19872" lon="2.43014">
        <ele>519.7</ele>
        <time>2017-01-10T13:42:27.000Z</time>
      </trkpt>
      <trkpt lat="44.1986" lon="2.43021">
        <ele>521.2</ele>
        <time>2017-01-10T13:42:38.000Z</time>
      </trkpt>
      <trkpt lat="44.19849" lon="2.43029">
        <ele>522.6</ele>
        <time>2017-01-10T13:42:50.000Z</time>
      </trkpt>
      <trkpt lat="44.19839" lon="2.43037">
        <ele>523.6</ele>
        <time>2017-01-10T13:43:01.000Z</time>
      </trkpt>
      <trkpt lat="44.19829" lon="2.43047">
        <ele>524.5</ele>
        <time>2017-01-10T13:43:12.000Z</time>
      </trkpt>
      <trkpt lat="44.1982" lon="2.43056">
        <ele>525.5</ele>
        <time>2017-01-10T13:43:23.000Z</time>
      </trkpt>
      <trkpt lat="44.19811" lon="2.43064">
        <ele>526.5</ele>
        <time>2017-01-10T13:43:34.000Z</time>
      </trkpt>
      <trkpt lat="44.19801" lon="2.43071">
        <ele>527.4</ele>
        <time>2017-01-10T13:43:44.000Z</time>
      </trkpt>
      <trkpt lat="44.19791" lon="2.43078">
        <ele>528.4</ele>
        <time>2017-01-10T13:43:54.000Z</time>
      </trkpt>
      <trkpt lat="44.19783" lon="2.43087">
        <ele>528.9</ele>
        <time>2017-01-10T13:44:05.000Z</time>
      </trkpt>
      <trkpt lat="44.19776" lon="2.43097">
        <ele>528.4</ele>
        <time>2017-01-10T13:44:15.000Z</time>
      </trkpt>
      <trkpt lat="44.19768" lon="2.43107">
        <ele>527.4</ele>
        <time>2017-01-10T13:44:25.000Z</time>
      </trkpt>
      <trkpt lat="44.19763" lon="2.43119">
        <ele>526.5</ele>
        <time>2017-01-10T13:44:35.000Z</time>
      </trkpt>
      <trkpt lat="44.19759" lon="2.43132">
        <ele>525</ele>
        <time>2017-01-10T13:44:46.000Z</time>
      </trkpt>
      <trkpt lat="44.19755" lon="2.43147">
        <ele>523.6</ele>
        <time>2017-01-10T13:44:57.000Z</time>
      </trkpt>
      <trkpt lat="44.19748" lon="2.43162">
        <ele>521.7</ele>
        <time>2017-01-10T13:45:09.000Z</time>
      </trkpt>
      <trkpt lat="44.19741" lon="2.43175">
        <ele>520.7</ele>
        <time>2017-01-10T13:45:19.000Z</time>
      </trkpt>
      <trkpt lat="44.19734" lon="2.43186">
        <ele>519.2</ele>
        <time>2017-01-10T13:45:29.000Z</time>
      </trkpt>
      <trkpt lat="44.19726" lon="2.43198">
        <ele>518.3</ele>
        <time>2017-01-10T13:45:39.000Z</time>
      </trkpt>
      <trkpt lat="44.19718" lon="2.43209">
        <ele>517.8</ele>
        <time>2017-01-10T13:45:49.000Z</time>
      </trkpt>
      <trkpt lat="44.19708" lon="2.43217">
        <ele>516.8</ele>
        <time>2017-01-10T13:46:01.000Z</time>
      </trkpt>
      <trkpt lat="44.19695" lon="2.43223">
        <ele>514.9</ele>
        <time>2017-01-10T13:46:14.000Z</time>
      </trkpt>
      <trkpt lat="44.19681" lon="2.43227">
        <ele>513</ele>
        <time>2017-01-10T13:46:27.000Z</time>
      </trkpt>
      <trkpt lat="44.19668" lon="2.43234">
        <ele>512.5</ele>
        <time>2017-01-10T13:46:39.000Z</time>
      </trkpt>
      <trkpt lat="44.19652" lon="2.43239">
        <ele>512.5</ele>
        <time>2017-01-10T13:46:54.000Z</time>
      </trkpt>
      <trkpt lat="44.19635" lon="2.43244">
        <ele>512</ele>
        <time>2017-01-10T13:47:08.000Z</time>
      </trkpt>
      <trkpt lat="44.19622" lon="2.43246">
        <ele>511.1</ele>
        <time>2017-01-10T13:47:20.000Z</time>
      </trkpt>
      <trkpt lat="44.19604" lon="2.43244">
        <ele>509.2</ele>
        <time>2017-01-10T13:47:36.000Z</time>
      </trkpt>
      <trkpt lat="44.1959" lon="2.43241">
        <ele>507.7</ele>
        <time>2017-01-10T13:47:49.000Z</time>
      </trkpt>
      <trkpt lat="44.19576" lon="2.43237">
        <ele>506.3</ele>
        <time>2017-01-10T13:48:02.000Z</time>
      </trkpt>
      <trkpt lat="44.19562" lon="2.4323">
        <ele>505.3</ele>
        <time>2017-01-10T13:48:14.000Z</time>
      </trkpt>
      <trkpt lat="44.19547" lon="2.43225">
        <ele>505.3</ele>
        <time>2017-01-10T13:48:26.000Z</time>
      </trkpt>
      <trkpt lat="44.19532" lon="2.43215">
        <ele>507.2</ele>
        <time>2017-01-10T13:48:40.000Z</time>
      </trkpt>
      <trkpt lat="44.19524" lon="2.43202">
        <ele>508.7</ele>
        <time>2017-01-10T13:48:51.000Z</time>
      </trkpt>
      <trkpt lat="44.19517" lon="2.43189">
        <ele>508.7</ele>
        <time>2017-01-10T13:49:00.000Z</time>
      </trkpt>
      <trkpt lat="44.19508" lon="2.43183">
        <ele>508.7</ele>
        <time>2017-01-10T13:49:08.000Z</time>
      </trkpt>
      <trkpt lat="44.19498" lon="2.43185">
        <ele>506.8</ele>
        <time>2017-01-10T13:49:17.000Z</time>
      </trkpt>
      <trkpt lat="44.1949" lon="2.4319">
        <ele>505.8</ele>
        <time>2017-01-10T13:49:26.000Z</time>
      </trkpt>
      <trkpt lat="44.19482" lon="2.43199">
        <ele>504.8</ele>
        <time>2017-01-10T13:49:35.000Z</time>
      </trkpt>
      <trkpt lat="44.19472" lon="2.43207">
        <ele>504.8</ele>
        <time>2017-01-10T13:49:46.000Z</time>
      </trkpt>
      <trkpt lat="44.19463" lon="2.43218">
        <ele>503.9</ele>
        <time>2017-01-10T13:49:56.000Z</time>
      </trkpt>
      <trkpt lat="44.19455" lon="2.43227">
        <ele>503.4</ele>
        <time>2017-01-10T13:50:07.000Z</time>
      </trkpt>
      <trkpt lat="44.19446" lon="2.43234">
        <ele>502.9</ele>
        <time>2017-01-10T13:50:18.000Z</time>
      </trkpt>
      <trkpt lat="44.19434" lon="2.43242">
        <ele>502</ele>
        <time>2017-01-10T13:50:29.000Z</time>
      </trkpt>
      <trkpt lat="44.1942" lon="2.43252">
        <ele>501</ele>
        <time>2017-01-10T13:50:41.000Z</time>
      </trkpt>
      <trkpt lat="44.19405" lon="2.4326">
        <ele>500.5</ele>
        <time>2017-01-10T13:50:54.000Z</time>
      </trkpt>
      <trkpt lat="44.19394" lon="2.43267">
        <ele>499.5</ele>
        <time>2017-01-10T13:51:04.000Z</time>
      </trkpt>
      <trkpt lat="44.19384" lon="2.43272">
        <ele>499.1</ele>
        <time>2017-01-10T13:51:14.000Z</time>
      </trkpt>
      <trkpt lat="44.19372" lon="2.43277">
        <ele>498.6</ele>
        <time>2017-01-10T13:51:27.000Z</time>
      </trkpt>
      <trkpt lat="44.19359" lon="2.43281">
        <ele>497.6</ele>
        <time>2017-01-10T13:51:38.000Z</time>
      </trkpt>
      <trkpt lat="44.19346" lon="2.43289">
        <ele>496.7</ele>
        <time>2017-01-10T13:51:48.000Z</time>
      </trkpt>
      <trkpt lat="44.19336" lon="2.43298">
        <ele>496.7</ele>
        <time>2017-01-10T13:51:56.000Z</time>
      </trkpt>
      <trkpt lat="44.19327" lon="2.4331">
        <ele>496.7</ele>
        <time>2017-01-10T13:52:05.000Z</time>
      </trkpt>
      <trkpt lat="44.19318" lon="2.43315">
        <ele>496.7</ele>
        <time>2017-01-10T13:52:14.000Z</time>
      </trkpt>
      <trkpt lat="44.19306" lon="2.43318">
        <ele>496.2</ele>
        <time>2017-01-10T13:52:23.000Z</time>
      </trkpt>
      <trkpt lat="44.19297" lon="2.43325">
        <ele>495.7</ele>
        <time>2017-01-10T13:52:32.000Z</time>
      </trkpt>
      <trkpt lat="44.19288" lon="2.43333">
        <ele>495.2</ele>
        <time>2017-01-10T13:52:41.000Z</time>
      </trkpt>
      <trkpt lat="44.19277" lon="2.4334">
        <ele>495.2</ele>
        <time>2017-01-10T13:52:49.000Z</time>
      </trkpt>
      <trkpt lat="44.19267" lon="2.43348">
        <ele>494.7</ele>
        <time>2017-01-10T13:52:57.000Z</time>
      </trkpt>
      <trkpt lat="44.19259" lon="2.43356">
        <ele>494.3</ele>
        <time>2017-01-10T13:53:05.000Z</time>
      </trkpt>
      <trkpt lat="44.1925" lon="2.43364">
        <ele>494.3</ele>
        <time>2017-01-10T13:53:14.000Z</time>
      </trkpt>
      <trkpt lat="44.19241" lon="2.4337">
        <ele>493.3</ele>
        <time>2017-01-10T13:53:24.000Z</time>
      </trkpt>
      <trkpt lat="44.19229" lon="2.43373">
        <ele>490.9</ele>
        <time>2017-01-10T13:53:35.000Z</time>
      </trkpt>
      <trkpt lat="44.19219" lon="2.43377">
        <ele>489</ele>
        <time>2017-01-10T13:53:45.000Z</time>
      </trkpt>
      <trkpt lat="44.19208" lon="2.43381">
        <ele>488</ele>
        <time>2017-01-10T13:53:55.000Z</time>
      </trkpt>
      <trkpt lat="44.19195" lon="2.43383">
        <ele>487.5</ele>
        <time>2017-01-10T13:54:07.000Z</time>
      </trkpt>
      <trkpt lat="44.19187" lon="2.43393">
        <ele>486.6</ele>
        <time>2017-01-10T13:54:15.000Z</time>
      </trkpt>
      <trkpt lat="44.19183" lon="2.43407">
        <ele>486.1</ele>
        <time>2017-01-10T13:54:24.000Z</time>
      </trkpt>
      <trkpt lat="44.1918" lon="2.43423">
        <ele>484.2</ele>
        <time>2017-01-10T13:54:34.000Z</time>
      </trkpt>
      <trkpt lat="44.19174" lon="2.43437">
        <ele>484.2</ele>
        <time>2017-01-10T13:54:44.000Z</time>
      </trkpt>
      <trkpt lat="44.19168" lon="2.43451">
        <ele>484.2</ele>
        <time>2017-01-10T13:54:53.000Z</time>
      </trkpt>
      <trkpt lat="44.19158" lon="2.43467">
        <ele>484.2</ele>
        <time>2017-01-10T13:56:01.000Z</time>
      </trkpt>
      <trkpt lat="44.19155" lon="2.43481">
        <ele>484.2</ele>
        <time>2017-01-10T13:56:10.000Z</time>
      </trkpt>
      <trkpt lat="44.1915" lon="2.43495">
        <ele>485.1</ele>
        <time>2017-01-10T13:56:20.000Z</time>
      </trkpt>
      <trkpt lat="44.19142" lon="2.43509">
        <ele>487</ele>
        <time>2017-01-10T13:56:29.000Z</time>
      </trkpt>
      <trkpt lat="44.19136" lon="2.4352">
        <ele>488</ele>
        <time>2017-01-10T13:56:37.000Z</time>
      </trkpt>
      <trkpt lat="44.19129" lon="2.4353">
        <ele>489</ele>
        <time>2017-01-10T13:56:45.000Z</time>
      </trkpt>
      <trkpt lat="44.19121" lon="2.4354">
        <ele>489.9</ele>
        <time>2017-01-10T13:56:53.000Z</time>
      </trkpt>
      <trkpt lat="44.19114" lon="2.43548">
        <ele>490.9</ele>
        <time>2017-01-10T13:57:02.000Z</time>
      </trkpt>
      <trkpt lat="44.19104" lon="2.43555">
        <ele>491.9</ele>
        <time>2017-01-10T13:57:11.000Z</time>
      </trkpt>
      <trkpt lat="44.19092" lon="2.43565">
        <ele>493.3</ele>
        <time>2017-01-10T13:57:24.000Z</time>
      </trkpt>
      <trkpt lat="44.19076" lon="2.43577">
        <ele>495.7</ele>
        <time>2017-01-10T13:57:38.000Z</time>
      </trkpt>
      <trkpt lat="44.19061" lon="2.43581">
        <ele>497.1</ele>
        <time>2017-01-10T13:57:49.000Z</time>
      </trkpt>
      <trkpt lat="44.19046" lon="2.4359">
        <ele>498.6</ele>
        <time>2017-01-10T13:58:02.000Z</time>
      </trkpt>
      <trkpt lat="44.19033" lon="2.43601">
        <ele>500</ele>
        <time>2017-01-10T13:58:11.000Z</time>
      </trkpt>
      <trkpt lat="44.19024" lon="2.43611">
        <ele>501</ele>
        <time>2017-01-10T13:58:19.000Z</time>
      </trkpt>
      <trkpt lat="44.19014" lon="2.43619">
        <ele>502</ele>
        <time>2017-01-10T13:58:27.000Z</time>
      </trkpt>
      <trkpt lat="44.19005" lon="2.4363">
        <ele>503.4</ele>
        <time>2017-01-10T13:58:36.000Z</time>
      </trkpt>
      <trkpt lat="44.19002" lon="2.43632">
        <ele>503.9</ele>
        <time>2017-01-10T13:59:58.000Z</time>
      </trkpt>
      <trkpt lat="44.18997" lon="2.43645">
        <ele>503.9</ele>
        <time>2017-01-10T14:02:36.000Z</time>
      </trkpt>
      <trkpt lat="44.18995" lon="2.43658">
        <ele>504.8</ele>
        <time>2017-01-10T14:02:48.000Z</time>
      </trkpt>
      <trkpt lat="44.18997" lon="2.43671">
        <ele>506.3</ele>
        <time>2017-01-10T14:02:59.000Z</time>
      </trkpt>
      <trkpt lat="44.19003" lon="2.43684">
        <ele>507.2</ele>
        <time>2017-01-10T14:03:10.000Z</time>
      </trkpt>
      <trkpt lat="44.19009" lon="2.43696">
        <ele>509.2</ele>
        <time>2017-01-10T14:03:20.000Z</time>
      </trkpt>
      <trkpt lat="44.19015" lon="2.43707">
        <ele>510.6</ele>
        <time>2017-01-10T14:03:31.000Z</time>
      </trkpt>
      <trkpt lat="44.1902" lon="2.4372">
        <ele>512.5</ele>
        <time>2017-01-10T14:03:40.000Z</time>
      </trkpt>
      <trkpt lat="44.19026" lon="2.43734">
        <ele>514</ele>
        <time>2017-01-10T14:03:50.000Z</time>
      </trkpt>
      <trkpt lat="44.19034" lon="2.43744">
        <ele>515.9</ele>
        <time>2017-01-10T14:04:06.000Z</time>
      </trkpt>
      <trkpt lat="44.19041" lon="2.43754">
        <ele>517.3</ele>
        <time>2017-01-10T14:04:18.000Z</time>
      </trkpt>
      <trkpt lat="44.19045" lon="2.43753">
        <ele>517.3</ele>
        <time>2017-01-10T14:04:57.000Z</time>
      </trkpt>
      <trkpt lat="44.19048" lon="2.4374">
        <ele>517.3</ele>
        <time>2017-01-10T14:05:15.000Z</time>
      </trkpt>
      <trkpt lat="44.19056" lon="2.4373">
        <ele>520.2</ele>
        <time>2017-01-10T14:05:28.000Z</time>
      </trkpt>
      <trkpt lat="44.19067" lon="2.43728">
        <ele>521.7</ele>
        <time>2017-01-10T14:05:37.000Z</time>
      </trkpt>
      <trkpt lat="44.19077" lon="2.43723">
        <ele>522.1</ele>
        <time>2017-01-10T14:05:47.000Z</time>
      </trkpt>
      <trkpt lat="44.19087" lon="2.43722">
        <ele>524.1</ele>
        <time>2017-01-10T14:05:57.000Z</time>
      </trkpt>
      <trkpt lat="44.191" lon="2.43717">
        <ele>525.5</ele>
        <time>2017-01-10T14:06:13.000Z</time>
      </trkpt>
      <trkpt lat="44.19111" lon="2.43713">
        <ele>526.5</ele>
        <time>2017-01-10T14:06:28.000Z</time>
      </trkpt>
      <trkpt lat="44.19123" lon="2.43711">
        <ele>526.9</ele>
        <time>2017-01-10T14:06:39.000Z</time>
      </trkpt>
      <trkpt lat="44.19133" lon="2.43707">
        <ele>527.4</ele>
        <time>2017-01-10T14:06:49.000Z</time>
      </trkpt>
      <trkpt lat="44.19144" lon="2.43704">
        <ele>528.4</ele>
        <time>2017-01-10T14:06:59.000Z</time>
      </trkpt>
      <trkpt lat="44.19155" lon="2.43699">
        <ele>529.3</ele>
        <time>2017-01-10T14:07:10.000Z</time>
      </trkpt>
      <trkpt lat="44.19165" lon="2.43695">
        <ele>529.8</ele>
        <time>2017-01-10T14:07:21.000Z</time>
      </trkpt>
      <trkpt lat="44.19176" lon="2.43688">
        <ele>530.8</ele>
        <time>2017-01-10T14:07:32.000Z</time>
      </trkpt>
      <trkpt lat="44.19186" lon="2.43682">
        <ele>531.7</ele>
        <time>2017-01-10T14:07:43.000Z</time>
      </trkpt>
      <trkpt lat="44.19198" lon="2.43677">
        <ele>532.2</ele>
        <time>2017-01-10T14:07:54.000Z</time>
      </trkpt>
      <trkpt lat="44.19208" lon="2.43672">
        <ele>533.2</ele>
        <time>2017-01-10T14:08:05.000Z</time>
      </trkpt>
      <trkpt lat="44.1922" lon="2.43667">
        <ele>533.7</ele>
        <time>2017-01-10T14:08:15.000Z</time>
      </trkpt>
      <trkpt lat="44.1923" lon="2.43662">
        <ele>534.6</ele>
        <time>2017-01-10T14:08:24.000Z</time>
      </trkpt>
      <trkpt lat="44.1924" lon="2.43658">
        <ele>534.6</ele>
        <time>2017-01-10T14:08:34.000Z</time>
      </trkpt>
      <trkpt lat="44.19249" lon="2.43653">
        <ele>534.6</ele>
        <time>2017-01-10T14:08:43.000Z</time>
      </trkpt>
      <trkpt lat="44.1926" lon="2.43646">
        <ele>535.1</ele>
        <time>2017-01-10T14:08:52.000Z</time>
      </trkpt>
      <trkpt lat="44.19269" lon="2.43639">
        <ele>536.1</ele>
        <time>2017-01-10T14:09:01.000Z</time>
      </trkpt>
      <trkpt lat="44.19277" lon="2.43633">
        <ele>536.1</ele>
        <time>2017-01-10T14:09:09.000Z</time>
      </trkpt>
      <trkpt lat="44.19286" lon="2.43627">
        <ele>536.1</ele>
        <time>2017-01-10T14:09:17.000Z</time>
      </trkpt>
      <trkpt lat="44.19294" lon="2.43621">
        <ele>536.5</ele>
        <time>2017-01-10T14:09:25.000Z</time>
      </trkpt>
      <trkpt lat="44.19303" lon="2.43614">
        <ele>536.5</ele>
        <time>2017-01-10T14:09:34.000Z</time>
      </trkpt>
      <trkpt lat="44.19311" lon="2.43608">
        <ele>537</ele>
        <time>2017-01-10T14:09:43.000Z</time>
      </trkpt>
      <trkpt lat="44.1932" lon="2.43602">
        <ele>537</ele>
        <time>2017-01-10T14:09:52.000Z</time>
      </trkpt>
      <trkpt lat="44.1933" lon="2.43595">
        <ele>538</ele>
        <time>2017-01-10T14:10:01.000Z</time>
      </trkpt>
      <trkpt lat="44.19339" lon="2.43589">
        <ele>538.5</ele>
        <time>2017-01-10T14:10:09.000Z</time>
      </trkpt>
      <trkpt lat="44.19347" lon="2.43583">
        <ele>538.5</ele>
        <time>2017-01-10T14:10:17.000Z</time>
      </trkpt>
      <trkpt lat="44.19355" lon="2.43576">
        <ele>539.4</ele>
        <time>2017-01-10T14:10:26.000Z</time>
      </trkpt>
      <trkpt lat="44.19364" lon="2.4357">
        <ele>539.9</ele>
        <time>2017-01-10T14:10:34.000Z</time>
      </trkpt>
      <trkpt lat="44.19372" lon="2.43563">
        <ele>540.9</ele>
        <time>2017-01-10T14:10:43.000Z</time>
      </trkpt>
      <trkpt lat="44.19381" lon="2.43554">
        <ele>540.9</ele>
        <time>2017-01-10T14:10:53.000Z</time>
      </trkpt>
      <trkpt lat="44.19391" lon="2.43545">
        <ele>541.8</ele>
        <time>2017-01-10T14:11:03.000Z</time>
      </trkpt>
      <trkpt lat="44.194" lon="2.43537">
        <ele>542.3</ele>
        <time>2017-01-10T14:11:13.000Z</time>
      </trkpt>
      <trkpt lat="44.19409" lon="2.43527">
        <ele>542.8</ele>
        <time>2017-01-10T14:11:24.000Z</time>
      </trkpt>
      <trkpt lat="44.19418" lon="2.43518">
        <ele>543.3</ele>
        <time>2017-01-10T14:11:33.000Z</time>
      </trkpt>
      <trkpt lat="44.19427" lon="2.43511">
        <ele>544.2</ele>
        <time>2017-01-10T14:11:42.000Z</time>
      </trkpt>
      <trkpt lat="44.19436" lon="2.43506">
        <ele>544.7</ele>
        <time>2017-01-10T14:11:50.000Z</time>
      </trkpt>
      <trkpt lat="44.19445" lon="2.43501">
        <ele>544.7</ele>
        <time>2017-01-10T14:11:58.000Z</time>
      </trkpt>
      <trkpt lat="44.19454" lon="2.43497">
        <ele>545.2</ele>
        <time>2017-01-10T14:12:07.000Z</time>
      </trkpt>
      <trkpt lat="44.19463" lon="2.43492">
        <ele>545.7</ele>
        <time>2017-01-10T14:12:15.000Z</time>
      </trkpt>
      <trkpt lat="44.19473" lon="2.43488">
        <ele>546.2</ele>
        <time>2017-01-10T14:12:24.000Z</time>
      </trkpt>
      <trkpt lat="44.19482" lon="2.43483">
        <ele>546.7</ele>
        <time>2017-01-10T14:12:33.000Z</time>
      </trkpt>
      <trkpt lat="44.19492" lon="2.43478">
        <ele>547.1</ele>
        <time>2017-01-10T14:12:42.000Z</time>
      </trkpt>
      <trkpt lat="44.19501" lon="2.43475">
        <ele>547.6</ele>
        <time>2017-01-10T14:12:50.000Z</time>
      </trkpt>
      <trkpt lat="44.19512" lon="2.4347">
        <ele>548.1</ele>
        <time>2017-01-10T14:13:01.000Z</time>
      </trkpt>
      <trkpt lat="44.19523" lon="2.43467">
        <ele>548.6</ele>
        <time>2017-01-10T14:13:11.000Z</time>
      </trkpt>
      <trkpt lat="44.19533" lon="2.43463">
        <ele>548.6</ele>
        <time>2017-01-10T14:13:20.000Z</time>
      </trkpt>
      <trkpt lat="44.19544" lon="2.43458">
        <ele>548.6</ele>
        <time>2017-01-10T14:13:29.000Z</time>
      </trkpt>
      <trkpt lat="44.19556" lon="2.43455">
        <ele>549</ele>
        <time>2017-01-10T14:13:39.000Z</time>
      </trkpt>
      <trkpt lat="44.19567" lon="2.43451">
        <ele>549.5</ele>
        <time>2017-01-10T14:13:48.000Z</time>
      </trkpt>
      <trkpt lat="44.19578" lon="2.43449">
        <ele>549.5</ele>
        <time>2017-01-10T14:13:57.000Z</time>
      </trkpt>
      <trkpt lat="44.19588" lon="2.43448">
        <ele>549.5</ele>
        <time>2017-01-10T14:14:06.000Z</time>
      </trkpt>
      <trkpt lat="44.19598" lon="2.43447">
        <ele>549.5</ele>
        <time>2017-01-10T14:14:16.000Z</time>
      </trkpt>
      <trkpt lat="44.19609" lon="2.43442">
        <ele>549.5</ele>
        <time>2017-01-10T14:14:25.000Z</time>
      </trkpt>
      <trkpt lat="44.19619" lon="2.4344">
        <ele>550</ele>
        <time>2017-01-10T14:14:33.000Z</time>
      </trkpt>
      <trkpt lat="44.1963" lon="2.43435">
        <ele>550.5</ele>
        <time>2017-01-10T14:14:41.000Z</time>
      </trkpt>
      <trkpt lat="44.19638" lon="2.43429">
        <ele>550.5</ele>
        <time>2017-01-10T14:14:50.000Z</time>
      </trkpt>
      <trkpt lat="44.19648" lon="2.43422">
        <ele>550.5</ele>
        <time>2017-01-10T14:15:01.000Z</time>
      </trkpt>
      <trkpt lat="44.19656" lon="2.43412">
        <ele>550.5</ele>
        <time>2017-01-10T14:15:13.000Z</time>
      </trkpt>
      <trkpt lat="44.19666" lon="2.43405">
        <ele>551.9</ele>
        <time>2017-01-10T14:15:24.000Z</time>
      </trkpt>
      <trkpt lat="44.19676" lon="2.43398">
        <ele>551.9</ele>
        <time>2017-01-10T14:15:33.000Z</time>
      </trkpt>
      <trkpt lat="44.19684" lon="2.4339">
        <ele>550.5</ele>
        <time>2017-01-10T14:15:44.000Z</time>
      </trkpt>
      <trkpt lat="44.19693" lon="2.43385">
        <ele>550</ele>
        <time>2017-01-10T14:15:52.000Z</time>
      </trkpt>
      <trkpt lat="44.19703" lon="2.43379">
        <ele>549</ele>
        <time>2017-01-10T14:16:01.000Z</time>
      </trkpt>
      <trkpt lat="44.19713" lon="2.43373">
        <ele>549</ele>
        <time>2017-01-10T14:16:10.000Z</time>
      </trkpt>
      <trkpt lat="44.19721" lon="2.43367">
        <ele>548.1</ele>
        <time>2017-01-10T14:16:18.000Z</time>
      </trkpt>
      <trkpt lat="44.19731" lon="2.4336">
        <ele>547.6</ele>
        <time>2017-01-10T14:16:28.000Z</time>
      </trkpt>
      <trkpt lat="44.19741" lon="2.43354">
        <ele>546.7</ele>
        <time>2017-01-10T14:16:37.000Z</time>
      </trkpt>
      <trkpt lat="44.19751" lon="2.43346">
        <ele>545.7</ele>
        <time>2017-01-10T14:16:46.000Z</time>
      </trkpt>
      <trkpt lat="44.1976" lon="2.4334">
        <ele>545.2</ele>
        <time>2017-01-10T14:16:54.000Z</time>
      </trkpt>
      <trkpt lat="44.1977" lon="2.43334">
        <ele>544.2</ele>
        <time>2017-01-10T14:17:02.000Z</time>
      </trkpt>
      <trkpt lat="44.19779" lon="2.43327">
        <ele>543.3</ele>
        <time>2017-01-10T14:17:11.000Z</time>
      </trkpt>
      <trkpt lat="44.19789" lon="2.4332">
        <ele>542.3</ele>
        <time>2017-01-10T14:17:20.000Z</time>
      </trkpt>
      <trkpt lat="44.19798" lon="2.43315">
        <ele>541.4</ele>
        <time>2017-01-10T14:17:28.000Z</time>
      </trkpt>
      <trkpt lat="44.19807" lon="2.4331">
        <ele>540.9</ele>
        <time>2017-01-10T14:17:36.000Z</time>
      </trkpt>
      <trkpt lat="44.19816" lon="2.43309">
        <ele>540.4</ele>
        <time>2017-01-10T14:17:44.000Z</time>
      </trkpt>
      <trkpt lat="44.19826" lon="2.43309">
        <ele>540.4</ele>
        <time>2017-01-10T14:17:52.000Z</time>
      </trkpt>
      <trkpt lat="44.19835" lon="2.43311">
        <ele>540.4</ele>
        <time>2017-01-10T14:18:00.000Z</time>
      </trkpt>
      <trkpt lat="44.19845" lon="2.43314">
        <ele>540.4</ele>
        <time>2017-01-10T14:18:08.000Z</time>
      </trkpt>
      <trkpt lat="44.19854" lon="2.43319">
        <ele>540.4</ele>
        <time>2017-01-10T14:18:16.000Z</time>
      </trkpt>
      <trkpt lat="44.19863" lon="2.43323">
        <ele>540.4</ele>
        <time>2017-01-10T14:18:24.000Z</time>
      </trkpt>
      <trkpt lat="44.19872" lon="2.43328">
        <ele>540.4</ele>
        <time>2017-01-10T14:18:32.000Z</time>
      </trkpt>
      <trkpt lat="44.19882" lon="2.43334">
        <ele>541.8</ele>
        <time>2017-01-10T14:18:40.000Z</time>
      </trkpt>
      <trkpt lat="44.19891" lon="2.43338">
        <ele>542.3</ele>
        <time>2017-01-10T14:18:48.000Z</time>
      </trkpt>
      <trkpt lat="44.199" lon="2.43342">
        <ele>542.8</ele>
        <time>2017-01-10T14:18:56.000Z</time>
      </trkpt>
      <trkpt lat="44.19909" lon="2.43347">
        <ele>543.3</ele>
        <time>2017-01-10T14:19:04.000Z</time>
      </trkpt>
      <trkpt lat="44.19918" lon="2.43352">
        <ele>543.3</ele>
        <time>2017-01-10T14:19:12.000Z</time>
      </trkpt>
      <trkpt lat="44.19927" lon="2.43356">
        <ele>543.8</ele>
        <time>2017-01-10T14:19:21.000Z</time>
      </trkpt>
      <trkpt lat="44.19936" lon="2.43358">
        <ele>543.8</ele>
        <time>2017-01-10T14:19:29.000Z</time>
      </trkpt>
      <trkpt lat="44.19945" lon="2.4336">
        <ele>543.8</ele>
        <time>2017-01-10T14:19:37.000Z</time>
      </trkpt>
      <trkpt lat="44.19954" lon="2.43362">
        <ele>544.2</ele>
        <time>2017-01-10T14:19:45.000Z</time>
      </trkpt>
      <trkpt lat="44.19964" lon="2.43363">
        <ele>544.2</ele>
        <time>2017-01-10T14:19:53.000Z</time>
      </trkpt>
      <trkpt lat="44.19974" lon="2.43363">
        <ele>544.7</ele>
        <time>2017-01-10T14:20:01.000Z</time>
      </trkpt>
      <trkpt lat="44.19983" lon="2.43363">
        <ele>544.7</ele>
        <time>2017-01-10T14:20:09.000Z</time>
      </trkpt>
      <trkpt lat="44.19993" lon="2.43363">
        <ele>544.7</ele>
        <time>2017-01-10T14:20:17.000Z</time>
      </trkpt>
      <trkpt lat="44.20003" lon="2.43363">
        <ele>544.7</ele>
        <time>2017-01-10T14:20:25.000Z</time>
      </trkpt>
      <trkpt lat="44.20014" lon="2.43362">
        <ele>544.7</ele>
        <time>2017-01-10T14:20:33.000Z</time>
      </trkpt>
      <trkpt lat="44.20024" lon="2.43362">
        <ele>544.7</ele>
        <time>2017-01-10T14:20:41.000Z</time>
      </trkpt>
      <trkpt lat="44.20033" lon="2.4336">
        <ele>544.7</ele>
        <time>2017-01-10T14:20:49.000Z</time>
      </trkpt>
      <trkpt lat="44.20044" lon="2.4336">
        <ele>544.7</ele>
        <time>2017-01-10T14:20:57.000Z</time>
      </trkpt>
      <trkpt lat="44.20053" lon="2.43359">
        <ele>542.8</ele>
        <time>2017-01-10T14:21:05.000Z</time>
      </trkpt>
      <trkpt lat="44.20063" lon="2.43359">
        <ele>542.8</ele>
        <time>2017-01-10T14:21:13.000Z</time>
      </trkpt>
      <trkpt lat="44.20073" lon="2.43359">
        <ele>542.3</ele>
        <time>2017-01-10T14:21:21.000Z</time>
      </trkpt>
      <trkpt lat="44.20082" lon="2.43359">
        <ele>541.8</ele>
        <time>2017-01-10T14:21:29.000Z</time>
      </trkpt>
      <trkpt lat="44.20092" lon="2.43358">
        <ele>540.4</ele>
        <time>2017-01-10T14:21:37.000Z</time>
      </trkpt>
      <trkpt lat="44.20102" lon="2.43357">
        <ele>539.9</ele>
        <time>2017-01-10T14:21:44.000Z</time>
      </trkpt>
      <trkpt lat="44.20112" lon="2.43356">
        <ele>539.9</ele>
        <time>2017-01-10T14:21:52.000Z</time>
      </trkpt>
      <trkpt lat="44.20122" lon="2.43354">
        <ele>539</ele>
        <time>2017-01-10T14:22:00.000Z</time>
      </trkpt>
      <trkpt lat="44.20132" lon="2.43351">
        <ele>539</ele>
        <time>2017-01-10T14:22:08.000Z</time>
      </trkpt>
      <trkpt lat="44.20142" lon="2.43348">
        <ele>537.5</ele>
        <time>2017-01-10T14:22:16.000Z</time>
      </trkpt>
      <trkpt lat="44.20149" lon="2.43343">
        <ele>537</ele>
        <time>2017-01-10T14:22:24.000Z</time>
      </trkpt>
      <trkpt lat="44.20158" lon="2.4334">
        <ele>536.5</ele>
        <time>2017-01-10T14:22:32.000Z</time>
      </trkpt>
      <trkpt lat="44.20168" lon="2.43336">
        <ele>536.5</ele>
        <time>2017-01-10T14:22:40.000Z</time>
      </trkpt>
      <trkpt lat="44.20177" lon="2.43332">
        <ele>536.1</ele>
        <time>2017-01-10T14:22:48.000Z</time>
      </trkpt>
      <trkpt lat="44.20187" lon="2.43327">
        <ele>535.6</ele>
        <time>2017-01-10T14:22:56.000Z</time>
      </trkpt>
      <trkpt lat="44.20196" lon="2.43324">
        <ele>535.6</ele>
        <time>2017-01-10T14:23:04.000Z</time>
      </trkpt>
      <trkpt lat="44.20205" lon="2.43321">
        <ele>535.6</ele>
        <time>2017-01-10T14:23:12.000Z</time>
      </trkpt>
      <trkpt lat="44.20216" lon="2.43317">
        <ele>535.1</ele>
        <time>2017-01-10T14:23:20.000Z</time>
      </trkpt>
      <trkpt lat="44.20225" lon="2.43314">
        <ele>534.6</ele>
        <time>2017-01-10T14:23:28.000Z</time>
      </trkpt>
      <trkpt lat="44.20234" lon="2.4331">
        <ele>534.2</ele>
        <time>2017-01-10T14:23:35.000Z</time>
      </trkpt>
      <trkpt lat="44.20242" lon="2.43305">
        <ele>533.7</ele>
        <time>2017-01-10T14:23:43.000Z</time>
      </trkpt>
      <trkpt lat="44.20245" lon="2.43292">
        <ele>533.7</ele>
        <time>2017-01-10T14:23:51.000Z</time>
      </trkpt>
      <trkpt lat="44.20243" lon="2.43279">
        <ele>533.7</ele>
        <time>2017-01-10T14:23:59.000Z</time>
      </trkpt>
      <trkpt lat="44.2024" lon="2.43266">
        <ele>533.7</ele>
        <time>2017-01-10T14:24:07.000Z</time>
      </trkpt>
      <trkpt lat="44.20236" lon="2.43253">
        <ele>535.1</ele>
        <time>2017-01-10T14:24:15.000Z</time>
      </trkpt>
      <trkpt lat="44.20234" lon="2.43241">
        <ele>536.1</ele>
        <time>2017-01-10T14:24:23.000Z</time>
      </trkpt>
      <trkpt lat="44.2023" lon="2.43228">
        <ele>536.1</ele>
        <time>2017-01-10T14:24:31.000Z</time>
      </trkpt>
      <trkpt lat="44.20226" lon="2.43216">
        <ele>536.1</ele>
        <time>2017-01-10T14:24:39.000Z</time>
      </trkpt>
      <trkpt lat="44.20222" lon="2.43204">
        <ele>536.1</ele>
        <time>2017-01-10T14:24:46.000Z</time>
      </trkpt>
      <trkpt lat="44.20218" lon="2.43191">
        <ele>536.1</ele>
        <time>2017-01-10T14:24:54.000Z</time>
      </trkpt>
      <trkpt lat="44.20213" lon="2.43178">
        <ele>535.1</ele>
        <time>2017-01-10T14:25:03.000Z</time>
      </trkpt>
      <trkpt lat="44.20208" lon="2.43165">
        <ele>534.2</ele>
        <time>2017-01-10T14:25:11.000Z</time>
      </trkpt>
      <trkpt lat="44.20204" lon="2.43154">
        <ele>533.7</ele>
        <time>2017-01-10T14:25:19.000Z</time>
      </trkpt>
      <trkpt lat="44.20199" lon="2.43141">
        <ele>533.2</ele>
        <time>2017-01-10T14:25:27.000Z</time>
      </trkpt>
      <trkpt lat="44.20194" lon="2.43129">
        <ele>532.2</ele>
        <time>2017-01-10T14:25:35.000Z</time>
      </trkpt>
      <trkpt lat="44.20188" lon="2.43118">
        <ele>531.3</ele>
        <time>2017-01-10T14:25:43.000Z</time>
      </trkpt>
      <trkpt lat="44.20179" lon="2.43112">
        <ele>530.3</ele>
        <time>2017-01-10T14:25:51.000Z</time>
      </trkpt>
      <trkpt lat="44.20168" lon="2.43108">
        <ele>529.3</ele>
        <time>2017-01-10T14:25:59.000Z</time>
      </trkpt>
      <trkpt lat="44.20157" lon="2.43105">
        <ele>528.4</ele>
        <time>2017-01-10T14:26:07.000Z</time>
      </trkpt>
      <trkpt lat="44.20148" lon="2.43101">
        <ele>527.4</ele>
        <time>2017-01-10T14:26:15.000Z</time>
      </trkpt>
      <trkpt lat="44.20141" lon="2.43091">
        <ele>526.9</ele>
        <time>2017-01-10T14:26:24.000Z</time>
      </trkpt>
      <trkpt lat="44.20137" lon="2.43076">
        <ele>526.5</ele>
        <time>2017-01-10T14:26:34.000Z</time>
      </trkpt>
      <trkpt lat="44.20135" lon="2.43058">
        <ele>525.5</ele>
        <time>2017-01-10T14:26:45.000Z</time>
      </trkpt>
      <trkpt lat="44.20135" lon="2.43038">
        <ele>524.5</ele>
        <time>2017-01-10T14:26:55.000Z</time>
      </trkpt>
      <trkpt lat="44.20136" lon="2.43019">
        <ele>523.6</ele>
        <time>2017-01-10T14:27:05.000Z</time>
      </trkpt>
      <trkpt lat="44.20137" lon="2.43004">
        <ele>523.1</ele>
        <time>2017-01-10T14:27:13.000Z</time>
      </trkpt>
      <trkpt lat="44.20138" lon="2.42991">
        <ele>522.6</ele>
        <time>2017-01-10T14:27:21.000Z</time>
      </trkpt>
      <trkpt lat="44.20141" lon="2.42979">
        <ele>522.1</ele>
        <time>2017-01-10T14:27:33.000Z</time>
      </trkpt>
      <trkpt lat="44.20143" lon="2.42965">
        <ele>522.1</ele>
        <time>2017-01-10T14:27:40.000Z</time>
      </trkpt>
      <trkpt lat="44.20143" lon="2.42951">
        <ele>521.2</ele>
        <time>2017-01-10T14:27:48.000Z</time>
      </trkpt>
      <trkpt lat="44.20142" lon="2.42938">
        <ele>520.7</ele>
        <time>2017-01-10T14:27:56.000Z</time>
      </trkpt>
      <trkpt lat="44.20138" lon="2.42927">
        <ele>520.2</ele>
        <time>2017-01-10T14:28:03.000Z</time>
      </trkpt>
      <trkpt lat="44.20133" lon="2.42915">
        <ele>519.2</ele>
        <time>2017-01-10T14:28:11.000Z</time>
      </trkpt>
      <trkpt lat="44.20129" lon="2.42902">
        <ele>518.3</ele>
        <time>2017-01-10T14:28:19.000Z</time>
      </trkpt>
      <trkpt lat="44.20127" lon="2.42887">
        <ele>517.3</ele>
        <time>2017-01-10T14:28:27.000Z</time>
      </trkpt>
      <trkpt lat="44.20127" lon="2.42873">
        <ele>516.4</ele>
        <time>2017-01-10T14:28:36.000Z</time>
      </trkpt>
      <trkpt lat="44.20124" lon="2.42858">
        <ele>515.4</ele>
        <time>2017-01-10T14:28:45.000Z</time>
      </trkpt>
      <trkpt lat="44.20121" lon="2.42844">
        <ele>514.9</ele>
        <time>2017-01-10T14:28:53.000Z</time>
      </trkpt>
      <trkpt lat="44.20117" lon="2.4283">
        <ele>513.5</ele>
        <time>2017-01-10T14:29:02.000Z</time>
      </trkpt>
      <trkpt lat="44.20113" lon="2.42813">
        <ele>512.5</ele>
        <time>2017-01-10T14:29:12.000Z</time>
      </trkpt>
      <trkpt lat="44.20113" lon="2.42797">
        <ele>510.6</ele>
        <time>2017-01-10T14:29:22.000Z</time>
      </trkpt>
      <trkpt lat="44.20117" lon="2.42783">
        <ele>510.1</ele>
        <time>2017-01-10T14:29:31.000Z</time>
      </trkpt>
      <trkpt lat="44.20123" lon="2.4277">
        <ele>509.2</ele>
        <time>2017-01-10T14:29:40.000Z</time>
      </trkpt>
      <trkpt lat="44.2013" lon="2.42757">
        <ele>508.2</ele>
        <time>2017-01-10T14:29:50.000Z</time>
      </trkpt>
      <trkpt lat="44.20139" lon="2.42744">
        <ele>507.2</ele>
        <time>2017-01-10T14:30:00.000Z</time>
      </trkpt>
      <trkpt lat="44.20151" lon="2.42736">
        <ele>505.8</ele>
        <time>2017-01-10T14:30:10.000Z</time>
      </trkpt>
      <trkpt lat="44.20164" lon="2.42729">
        <ele>505.3</ele>
        <time>2017-01-10T14:30:20.000Z</time>
      </trkpt>
      <trkpt lat="44.20175" lon="2.42728">
        <ele>503.9</ele>
        <time>2017-01-10T14:30:30.000Z</time>
      </trkpt>
      <trkpt lat="44.20186" lon="2.42728">
        <ele>502.9</ele>
        <time>2017-01-10T14:30:39.000Z</time>
      </trkpt>
      <trkpt lat="44.20197" lon="2.42723">
        <ele>502</ele>
        <time>2017-01-10T14:30:48.000Z</time>
      </trkpt>
      <trkpt lat="44.20206" lon="2.42714">
        <ele>501</ele>
        <time>2017-01-10T14:30:57.000Z</time>
      </trkpt>
      <trkpt lat="44.20209" lon="2.42699">
        <ele>500.5</ele>
        <time>2017-01-10T14:31:08.000Z</time>
      </trkpt>
      <trkpt lat="44.20201" lon="2.42689">
        <ele>500.5</ele>
        <time>2017-01-10T14:31:18.000Z</time>
      </trkpt>
      <trkpt lat="44.20192" lon="2.42683">
        <ele>502</ele>
        <time>2017-01-10T14:31:27.000Z</time>
      </trkpt>
      <trkpt lat="44.20183" lon="2.42679">
        <ele>502.9</ele>
        <time>2017-01-10T14:31:37.000Z</time>
      </trkpt>
      <trkpt lat="44.20173" lon="2.42674">
        <ele>503.9</ele>
        <time>2017-01-10T14:31:47.000Z</time>
      </trkpt>
      <trkpt lat="44.20162" lon="2.42669">
        <ele>504.8</ele>
        <time>2017-01-10T14:31:57.000Z</time>
      </trkpt>
      <trkpt lat="44.20151" lon="2.4266">
        <ele>505.3</ele>
        <time>2017-01-10T14:32:07.000Z</time>
      </trkpt>
      <trkpt lat="44.20146" lon="2.42647">
        <ele>506.3</ele>
        <time>2017-01-10T14:32:19.000Z</time>
      </trkpt>
      <trkpt lat="44.20149" lon="2.42631">
        <ele>507.2</ele>
        <time>2017-01-10T14:32:28.000Z</time>
      </trkpt>
      <trkpt lat="44.20154" lon="2.42616">
        <ele>508.2</ele>
        <time>2017-01-10T14:32:38.000Z</time>
      </trkpt>
      <trkpt lat="44.20158" lon="2.42602">
        <ele>509.2</ele>
        <time>2017-01-10T14:32:47.000Z</time>
      </trkpt>
      <trkpt lat="44.20162" lon="2.42589">
        <ele>509.2</ele>
        <time>2017-01-10T14:32:56.000Z</time>
      </trkpt>
      <trkpt lat="44.20165" lon="2.42574">
        <ele>510.6</ele>
        <time>2017-01-10T14:33:06.000Z</time>
      </trkpt>
      <trkpt lat="44.20167" lon="2.4256">
        <ele>511.1</ele>
        <time>2017-01-10T14:33:16.000Z</time>
      </trkpt>
      <trkpt lat="44.2017" lon="2.42546">
        <ele>512</ele>
        <time>2017-01-10T14:33:25.000Z</time>
      </trkpt>
      <trkpt lat="44.20173" lon="2.4253">
        <ele>513</ele>
        <time>2017-01-10T14:33:34.000Z</time>
      </trkpt>
      <trkpt lat="44.20175" lon="2.42515">
        <ele>513.5</ele>
        <time>2017-01-10T14:33:43.000Z</time>
      </trkpt>
      <trkpt lat="44.20178" lon="2.425">
        <ele>514</ele>
        <time>2017-01-10T14:33:52.000Z</time>
      </trkpt>
      <trkpt lat="44.20182" lon="2.42486">
        <ele>514.4</ele>
        <time>2017-01-10T14:34:01.000Z</time>
      </trkpt>
      <trkpt lat="44.20185" lon="2.42472">
        <ele>514.9</ele>
        <time>2017-01-10T14:34:10.000Z</time>
      </trkpt>
      <trkpt lat="44.20194" lon="2.42487">
        <ele>516.4</ele>
        <time>2017-01-10T14:34:24.000Z</time>
      </trkpt>
      <trkpt lat="44.20196" lon="2.42512">
        <ele>517.3</ele>
        <time>2017-01-10T14:38:28.000Z</time>
      </trkpt>
      <trkpt lat="44.20196" lon="2.42527">
        <ele>518.8</ele>
        <time>2017-01-10T14:38:38.000Z</time>
      </trkpt>
      <trkpt lat="44.20196" lon="2.42544">
        <ele>519.2</ele>
        <time>2017-01-10T14:38:48.000Z</time>
      </trkpt>
      <trkpt lat="44.20194" lon="2.42559">
        <ele>519.7</ele>
        <time>2017-01-10T14:38:57.000Z</time>
      </trkpt>
      <trkpt lat="44.20193" lon="2.42575">
        <ele>520.2</ele>
        <time>2017-01-10T14:39:08.000Z</time>
      </trkpt>
      <trkpt lat="44.20192" lon="2.42592">
        <ele>521.2</ele>
        <time>2017-01-10T14:39:20.000Z</time>
      </trkpt>
      <trkpt lat="44.20194" lon="2.42608">
        <ele>522.1</ele>
        <time>2017-01-10T14:39:30.000Z</time>
      </trkpt>
      <trkpt lat="44.20199" lon="2.42623">
        <ele>523.6</ele>
        <time>2017-01-10T14:39:41.000Z</time>
      </trkpt>
      <trkpt lat="44.20208" lon="2.42635">
        <ele>524.1</ele>
        <time>2017-01-10T14:39:52.000Z</time>
      </trkpt>
      <trkpt lat="44.20216" lon="2.42642">
        <ele>525</ele>
        <time>2017-01-10T14:40:02.000Z</time>
      </trkpt>
      <trkpt lat="44.20226" lon="2.42649">
        <ele>526</ele>
        <time>2017-01-10T14:40:12.000Z</time>
      </trkpt>
      <trkpt lat="44.20234" lon="2.42647">
        <ele>527.9</ele>
        <time>2017-01-10T14:40:25.000Z</time>
      </trkpt>
      <trkpt lat="44.20228" lon="2.42637">
        <ele>529.3</ele>
        <time>2017-01-10T14:40:36.000Z</time>
      </trkpt>
      <trkpt lat="44.20226" lon="2.42625">
        <ele>530.3</ele>
        <time>2017-01-10T14:40:46.000Z</time>
      </trkpt>
      <trkpt lat="44.20223" lon="2.42611">
        <ele>531.7</ele>
        <time>2017-01-10T14:40:58.000Z</time>
      </trkpt>
      <trkpt lat="44.20224" lon="2.42597">
        <ele>532.7</ele>
        <time>2017-01-10T14:41:09.000Z</time>
      </trkpt>
      <trkpt lat="44.20233" lon="2.42583">
        <ele>534.6</ele>
        <time>2017-01-10T14:41:22.000Z</time>
      </trkpt>
      <trkpt lat="44.20245" lon="2.42589">
        <ele>535.1</ele>
        <time>2017-01-10T14:41:33.000Z</time>
      </trkpt>
      <trkpt lat="44.20252" lon="2.42607">
        <ele>537</ele>
        <time>2017-01-10T14:41:46.000Z</time>
      </trkpt>
      <trkpt lat="44.2026" lon="2.42621">
        <ele>539</ele>
        <time>2017-01-10T14:41:58.000Z</time>
      </trkpt>
      <trkpt lat="44.2027" lon="2.42631">
        <ele>540.9</ele>
        <time>2017-01-10T14:42:10.000Z</time>
      </trkpt>
      <trkpt lat="44.20279" lon="2.42636">
        <ele>542.3</ele>
        <time>2017-01-10T14:42:21.000Z</time>
      </trkpt>
      <trkpt lat="44.20292" lon="2.42638">
        <ele>544.2</ele>
        <time>2017-01-10T14:42:36.000Z</time>
      </trkpt>
      <trkpt lat="44.20305" lon="2.42636">
        <ele>546.7</ele>
        <time>2017-01-10T14:42:52.000Z</time>
      </trkpt>
      <trkpt lat="44.20316" lon="2.42627">
        <ele>548.1</ele>
        <time>2017-01-10T14:43:05.000Z</time>
      </trkpt>
      <trkpt lat="44.20314" lon="2.42616">
        <ele>550.5</ele>
        <time>2017-01-10T14:43:18.000Z</time>
      </trkpt>
      <trkpt lat="44.20306" lon="2.42606">
        <ele>551.5</ele>
        <time>2017-01-10T14:43:30.000Z</time>
      </trkpt>
      <trkpt lat="44.20305" lon="2.42587">
        <ele>553.4</ele>
        <time>2017-01-10T14:43:45.000Z</time>
      </trkpt>
      <trkpt lat="44.20312" lon="2.42569">
        <ele>555.3</ele>
        <time>2017-01-10T14:44:00.000Z</time>
      </trkpt>
      <trkpt lat="44.20318" lon="2.42555">
        <ele>556.7</ele>
        <time>2017-01-10T14:44:11.000Z</time>
      </trkpt>
      <trkpt lat="44.20325" lon="2.42544">
        <ele>557.7</ele>
        <time>2017-01-10T14:44:21.000Z</time>
      </trkpt>
      <trkpt lat="44.20333" lon="2.42534">
        <ele>558.2</ele>
        <time>2017-01-10T14:44:31.000Z</time>
      </trkpt>
      <trkpt lat="44.20341" lon="2.42527">
        <ele>559.1</ele>
        <time>2017-01-10T14:44:40.000Z</time>
      </trkpt>
      <trkpt lat="44.20348" lon="2.42519">
        <ele>559.6</ele>
        <time>2017-01-10T14:44:49.000Z</time>
      </trkpt>
      <trkpt lat="44.20356" lon="2.42512">
        <ele>560.6</ele>
        <time>2017-01-10T14:44:58.000Z</time>
      </trkpt>
      <trkpt lat="44.20364" lon="2.42506">
        <ele>561.1</ele>
        <time>2017-01-10T14:45:07.000Z</time>
      </trkpt>
      <trkpt lat="44.20372" lon="2.42498">
        <ele>562</ele>
        <time>2017-01-10T14:45:17.000Z</time>
      </trkpt>
      <trkpt lat="44.2038" lon="2.42491">
        <ele>562</ele>
        <time>2017-01-10T14:45:26.000Z</time>
      </trkpt>
      <trkpt lat="44.20388" lon="2.42483">
        <ele>562.5</ele>
        <time>2017-01-10T14:45:35.000Z</time>
      </trkpt>
      <trkpt lat="44.20395" lon="2.42476">
        <ele>562.5</ele>
        <time>2017-01-10T14:45:43.000Z</time>
      </trkpt>
      <trkpt lat="44.20404" lon="2.42469">
        <ele>563</ele>
        <time>2017-01-10T14:45:52.000Z</time>
      </trkpt>
      <trkpt lat="44.20413" lon="2.42462">
        <ele>563.5</ele>
        <time>2017-01-10T14:46:01.000Z</time>
      </trkpt>
      <trkpt lat="44.20422" lon="2.42456">
        <ele>564</ele>
        <time>2017-01-10T14:46:10.000Z</time>
      </trkpt>
      <trkpt lat="44.20431" lon="2.42451">
        <ele>564.9</ele>
        <time>2017-01-10T14:46:20.000Z</time>
      </trkpt>
      <trkpt lat="44.2044" lon="2.42444">
        <ele>565.9</ele>
        <time>2017-01-10T14:46:31.000Z</time>
      </trkpt>
      <trkpt lat="44.2045" lon="2.42438">
        <ele>567.3</ele>
        <time>2017-01-10T14:46:42.000Z</time>
      </trkpt>
      <trkpt lat="44.20459" lon="2.42433">
        <ele>567.8</ele>
        <time>2017-01-10T14:46:53.000Z</time>
      </trkpt>
      <trkpt lat="44.20468" lon="2.42427">
        <ele>569.7</ele>
        <time>2017-01-10T14:47:04.000Z</time>
      </trkpt>
      <trkpt lat="44.20476" lon="2.42419">
        <ele>571.2</ele>
        <time>2017-01-10T14:47:15.000Z</time>
      </trkpt>
      <trkpt lat="44.20483" lon="2.42409">
        <ele>573.1</ele>
        <time>2017-01-10T14:47:29.000Z</time>
      </trkpt>
      <trkpt lat="44.2049" lon="2.42399">
        <ele>574</ele>
        <time>2017-01-10T14:47:39.000Z</time>
      </trkpt>
      <trkpt lat="44.20497" lon="2.42388">
        <ele>575</ele>
        <time>2017-01-10T14:47:49.000Z</time>
      </trkpt>
      <trkpt lat="44.20503" lon="2.42376">
        <ele>576</ele>
        <time>2017-01-10T14:47:58.000Z</time>
      </trkpt>
      <trkpt lat="44.20508" lon="2.42365">
        <ele>576.9</ele>
        <time>2017-01-10T14:48:07.000Z</time>
      </trkpt>
      <trkpt lat="44.20514" lon="2.42353">
        <ele>577.4</ele>
        <time>2017-01-10T14:48:17.000Z</time>
      </trkpt>
      <trkpt lat="44.20521" lon="2.4234">
        <ele>578.4</ele>
        <time>2017-01-10T14:48:28.000Z</time>
      </trkpt>
      <trkpt lat="44.20526" lon="2.42328">
        <ele>579.3</ele>
        <time>2017-01-10T14:48:38.000Z</time>
      </trkpt>
      <trkpt lat="44.20532" lon="2.42316">
        <ele>579.3</ele>
        <time>2017-01-10T14:48:48.000Z</time>
      </trkpt>
      <trkpt lat="44.20538" lon="2.42304">
        <ele>580.8</ele>
        <time>2017-01-10T14:48:57.000Z</time>
      </trkpt>
      <trkpt lat="44.20543" lon="2.42293">
        <ele>582.2</ele>
        <time>2017-01-10T14:49:06.000Z</time>
      </trkpt>
      <trkpt lat="44.20549" lon="2.42281">
        <ele>582.7</ele>
        <time>2017-01-10T14:49:15.000Z</time>
      </trkpt>
      <trkpt lat="44.20555" lon="2.42268">
        <ele>582.7</ele>
        <time>2017-01-10T14:49:25.000Z</time>
      </trkpt>
      <trkpt lat="44.20562" lon="2.42254">
        <ele>583.7</ele>
        <time>2017-01-10T14:49:35.000Z</time>
      </trkpt>
      <trkpt lat="44.20568" lon="2.42242">
        <ele>584.1</ele>
        <time>2017-01-10T14:49:45.000Z</time>
      </trkpt>
      <trkpt lat="44.20573" lon="2.42229">
        <ele>584.6</ele>
        <time>2017-01-10T14:49:56.000Z</time>
      </trkpt>
      <trkpt lat="44.20578" lon="2.42217">
        <ele>585.1</ele>
        <time>2017-01-10T14:50:05.000Z</time>
      </trkpt>
      <trkpt lat="44.20584" lon="2.42205">
        <ele>585.6</ele>
        <time>2017-01-10T14:50:14.000Z</time>
      </trkpt>
      <trkpt lat="44.2059" lon="2.42193">
        <ele>586.1</ele>
        <time>2017-01-10T14:50:24.000Z</time>
      </trkpt>
      <trkpt lat="44.20596" lon="2.42178">
        <ele>586.5</ele>
        <time>2017-01-10T14:50:36.000Z</time>
      </trkpt>
      <trkpt lat="44.20602" lon="2.42164">
        <ele>587</ele>
        <time>2017-01-10T14:50:47.000Z</time>
      </trkpt>
      <trkpt lat="44.20606" lon="2.42149">
        <ele>587.5</ele>
        <time>2017-01-10T14:50:57.000Z</time>
      </trkpt>
      <trkpt lat="44.2061" lon="2.42136">
        <ele>588.5</ele>
        <time>2017-01-10T14:51:07.000Z</time>
      </trkpt>
      <trkpt lat="44.20615" lon="2.42123">
        <ele>588.5</ele>
        <time>2017-01-10T14:51:16.000Z</time>
      </trkpt>
      <trkpt lat="44.2062" lon="2.42112">
        <ele>588.5</ele>
        <time>2017-01-10T14:51:24.000Z</time>
      </trkpt>
      <trkpt lat="44.20625" lon="2.421">
        <ele>589</ele>
        <time>2017-01-10T14:51:33.000Z</time>
      </trkpt>
      <trkpt lat="44.2063" lon="2.42089">
        <ele>589.4</ele>
        <time>2017-01-10T14:51:41.000Z</time>
      </trkpt>
      <trkpt lat="44.20636" lon="2.42077">
        <ele>589.4</ele>
        <time>2017-01-10T14:51:50.000Z</time>
      </trkpt>
      <trkpt lat="44.2064" lon="2.42064">
        <ele>589.4</ele>
        <time>2017-01-10T14:51:59.000Z</time>
      </trkpt>
      <trkpt lat="44.20643" lon="2.4205">
        <ele>591.3</ele>
        <time>2017-01-10T14:52:09.000Z</time>
      </trkpt>
      <trkpt lat="44.20648" lon="2.42035">
        <ele>591.3</ele>
        <time>2017-01-10T14:52:19.000Z</time>
      </trkpt>
      <trkpt lat="44.20652" lon="2.42023">
        <ele>591.8</ele>
        <time>2017-01-10T14:52:28.000Z</time>
      </trkpt>
      <trkpt lat="44.20655" lon="2.4201">
        <ele>592.8</ele>
        <time>2017-01-10T14:52:37.000Z</time>
      </trkpt>
      <trkpt lat="44.20658" lon="2.41996">
        <ele>594.2</ele>
        <time>2017-01-10T14:52:47.000Z</time>
      </trkpt>
      <trkpt lat="44.2066" lon="2.41982">
        <ele>594.2</ele>
        <time>2017-01-10T14:52:56.000Z</time>
      </trkpt>
      <trkpt lat="44.20663" lon="2.41969">
        <ele>595.2</ele>
        <time>2017-01-10T14:53:11.000Z</time>
      </trkpt>
      <trkpt lat="44.20664" lon="2.41955">
        <ele>596.2</ele>
        <time>2017-01-10T14:53:20.000Z</time>
      </trkpt>
      <trkpt lat="44.20666" lon="2.41941">
        <ele>596.6</ele>
        <time>2017-01-10T14:53:28.000Z</time>
      </trkpt>
      <trkpt lat="44.2067" lon="2.41926">
        <ele>597.6</ele>
        <time>2017-01-10T14:53:37.000Z</time>
      </trkpt>
      <trkpt lat="44.20674" lon="2.41913">
        <ele>598.1</ele>
        <time>2017-01-10T14:53:47.000Z</time>
      </trkpt>
      <trkpt lat="44.2068" lon="2.41901">
        <ele>599</ele>
        <time>2017-01-10T14:53:58.000Z</time>
      </trkpt>
      <trkpt lat="44.20685" lon="2.41887">
        <ele>599</ele>
        <time>2017-01-10T14:54:08.000Z</time>
      </trkpt>
      <trkpt lat="44.20686" lon="2.41853">
        <ele>600</ele>
        <time>2017-01-10T14:54:37.000Z</time>
      </trkpt>
      <trkpt lat="44.20686" lon="2.4182">
        <ele>601</ele>
        <time>2017-01-10T14:54:57.000Z</time>
      </trkpt>
      <trkpt lat="44.20686" lon="2.41802">
        <ele>601.4</ele>
        <time>2017-01-10T14:55:11.000Z</time>
      </trkpt>
      <trkpt lat="44.20688" lon="2.41782">
        <ele>601.9</ele>
        <time>2017-01-10T14:55:24.000Z</time>
      </trkpt>
      <trkpt lat="44.20688" lon="2.41763">
        <ele>602.4</ele>
        <time>2017-01-10T14:55:35.000Z</time>
      </trkpt>
      <trkpt lat="44.20683" lon="2.41752">
        <ele>602.4</ele>
        <time>2017-01-10T14:55:45.000Z</time>
      </trkpt>
      <trkpt lat="44.20674" lon="2.41754">
        <ele>601</ele>
        <time>2017-01-10T14:55:55.000Z</time>
      </trkpt>
      <trkpt lat="44.20664" lon="2.41753">
        <ele>599.5</ele>
        <time>2017-01-10T14:56:05.000Z</time>
      </trkpt>
      <trkpt lat="44.20654" lon="2.41753">
        <ele>598.6</ele>
        <time>2017-01-10T14:56:13.000Z</time>
      </trkpt>
      <trkpt lat="44.20646" lon="2.41742">
        <ele>598.6</ele>
        <time>2017-01-10T14:56:22.000Z</time>
      </trkpt>
      <trkpt lat="44.2065" lon="2.41728">
        <ele>598.6</ele>
        <time>2017-01-10T14:56:31.000Z</time>
      </trkpt>
      <trkpt lat="44.20654" lon="2.41715">
        <ele>598.6</ele>
        <time>2017-01-10T14:56:39.000Z</time>
      </trkpt>
      <trkpt lat="44.20664" lon="2.41715">
        <ele>599.5</ele>
        <time>2017-01-10T14:56:47.000Z</time>
      </trkpt>
      <trkpt lat="44.20674" lon="2.41719">
        <ele>600.5</ele>
        <time>2017-01-10T14:56:56.000Z</time>
      </trkpt>
      <trkpt lat="44.20684" lon="2.41722">
        <ele>601.9</ele>
        <time>2017-01-10T14:57:05.000Z</time>
      </trkpt>
      <trkpt lat="44.20693" lon="2.41716">
        <ele>603.8</ele>
        <time>2017-01-10T14:57:17.000Z</time>
      </trkpt>
      <trkpt lat="44.20694" lon="2.41702">
        <ele>604.8</ele>
        <time>2017-01-10T14:57:27.000Z</time>
      </trkpt>
      <trkpt lat="44.20693" lon="2.41688">
        <ele>604.8</ele>
        <time>2017-01-10T14:57:36.000Z</time>
      </trkpt>
      <trkpt lat="44.20689" lon="2.41675">
        <ele>605.3</ele>
        <time>2017-01-10T14:57:45.000Z</time>
      </trkpt>
      <trkpt lat="44.20687" lon="2.41661">
        <ele>606.2</ele>
        <time>2017-01-10T14:57:54.000Z</time>
      </trkpt>
      <trkpt lat="44.20682" lon="2.41648">
        <ele>607.2</ele>
        <time>2017-01-10T14:58:04.000Z</time>
      </trkpt>
      <trkpt lat="44.20679" lon="2.41636">
        <ele>608.2</ele>
        <time>2017-01-10T14:58:13.000Z</time>
      </trkpt>
      <trkpt lat="44.20674" lon="2.41625">
        <ele>609.1</ele>
        <time>2017-01-10T14:58:22.000Z</time>
      </trkpt>
      <trkpt lat="44.20671" lon="2.41613">
        <ele>610.1</ele>
        <time>2017-01-10T14:58:32.000Z</time>
      </trkpt>
      <trkpt lat="44.20666" lon="2.41603">
        <ele>611.1</ele>
        <time>2017-01-10T14:58:42.000Z</time>
      </trkpt>
      <trkpt lat="44.20661" lon="2.41588">
        <ele>612</ele>
        <time>2017-01-10T14:58:52.000Z</time>
      </trkpt>
      <trkpt lat="44.20657" lon="2.41576">
        <ele>613</ele>
        <time>2017-01-10T14:59:01.000Z</time>
      </trkpt>
      <trkpt lat="44.20653" lon="2.4156">
        <ele>613.5</ele>
        <time>2017-01-10T14:59:11.000Z</time>
      </trkpt>
      <trkpt lat="44.20649" lon="2.41549">
        <ele>614.4</ele>
        <time>2017-01-10T14:59:21.000Z</time>
      </trkpt>
      <trkpt lat="44.20644" lon="2.41537">
        <ele>614.9</ele>
        <time>2017-01-10T14:59:32.000Z</time>
      </trkpt>
      <trkpt lat="44.2064" lon="2.41524">
        <ele>615.4</ele>
        <time>2017-01-10T14:59:43.000Z</time>
      </trkpt>
      <trkpt lat="44.20636" lon="2.4151">
        <ele>616.3</ele>
        <time>2017-01-10T14:59:55.000Z</time>
      </trkpt>
      <trkpt lat="44.2063" lon="2.41495">
        <ele>616.8</ele>
        <time>2017-01-10T15:00:07.000Z</time>
      </trkpt>
      <trkpt lat="44.20625" lon="2.41478">
        <ele>617.8</ele>
        <time>2017-01-10T15:00:17.000Z</time>
      </trkpt>
      <trkpt lat="44.20621" lon="2.41462">
        <ele>618.3</ele>
        <time>2017-01-10T15:00:26.000Z</time>
      </trkpt>
      <trkpt lat="44.20616" lon="2.41446">
        <ele>618.3</ele>
        <time>2017-01-10T15:00:36.000Z</time>
      </trkpt>
      <trkpt lat="44.20614" lon="2.41431">
        <ele>616.8</ele>
        <time>2017-01-10T15:00:47.000Z</time>
      </trkpt>
      <trkpt lat="44.20613" lon="2.41419">
        <ele>617.8</ele>
        <time>2017-01-10T15:01:26.000Z</time>
      </trkpt>
      <trkpt lat="44.20605" lon="2.41415">
        <ele>618.3</ele>
        <time>2017-01-10T15:01:35.000Z</time>
      </trkpt>
      <trkpt lat="44.20597" lon="2.41408">
        <ele>616.8</ele>
        <time>2017-01-10T15:01:43.000Z</time>
      </trkpt>
      <trkpt lat="44.20588" lon="2.41401">
        <ele>616.8</ele>
        <time>2017-01-10T15:01:51.000Z</time>
      </trkpt>
      <trkpt lat="44.20579" lon="2.41391">
        <ele>616.3</ele>
        <time>2017-01-10T15:01:59.000Z</time>
      </trkpt>
      <trkpt lat="44.20571" lon="2.41384">
        <ele>615.9</ele>
        <time>2017-01-10T15:02:06.000Z</time>
      </trkpt>
      <trkpt lat="44.20563" lon="2.41375">
        <ele>615.9</ele>
        <time>2017-01-10T15:02:13.000Z</time>
      </trkpt>
      <trkpt lat="44.20556" lon="2.41367">
        <ele>615.4</ele>
        <time>2017-01-10T15:02:20.000Z</time>
      </trkpt>
      <trkpt lat="44.20549" lon="2.41359">
        <ele>615.4</ele>
        <time>2017-01-10T15:02:27.000Z</time>
      </trkpt>
      <trkpt lat="44.20541" lon="2.41352">
        <ele>614.9</ele>
        <time>2017-01-10T15:02:34.000Z</time>
      </trkpt>
      <trkpt lat="44.20534" lon="2.41344">
        <ele>614.4</ele>
        <time>2017-01-10T15:02:41.000Z</time>
      </trkpt>
      <trkpt lat="44.20526" lon="2.41336">
        <ele>614.4</ele>
        <time>2017-01-10T15:02:48.000Z</time>
      </trkpt>
      <trkpt lat="44.20518" lon="2.41328">
        <ele>613.9</ele>
        <time>2017-01-10T15:02:55.000Z</time>
      </trkpt>
      <trkpt lat="44.20511" lon="2.4132">
        <ele>613.5</ele>
        <time>2017-01-10T15:03:02.000Z</time>
      </trkpt>
      <trkpt lat="44.20504" lon="2.41313">
        <ele>613</ele>
        <time>2017-01-10T15:03:09.000Z</time>
      </trkpt>
      <trkpt lat="44.20496" lon="2.41306">
        <ele>612</ele>
        <time>2017-01-10T15:03:16.000Z</time>
      </trkpt>
      <trkpt lat="44.20487" lon="2.41299">
        <ele>612</ele>
        <time>2017-01-10T15:03:24.000Z</time>
      </trkpt>
      <trkpt lat="44.20479" lon="2.41291">
        <ele>611.5</ele>
        <time>2017-01-10T15:03:32.000Z</time>
      </trkpt>
      <trkpt lat="44.20471" lon="2.41285">
        <ele>610.6</ele>
        <time>2017-01-10T15:03:39.000Z</time>
      </trkpt>
      <trkpt lat="44.20463" lon="2.41279">
        <ele>610.1</ele>
        <time>2017-01-10T15:03:46.000Z</time>
      </trkpt>
      <trkpt lat="44.20455" lon="2.41272">
        <ele>610.1</ele>
        <time>2017-01-10T15:03:53.000Z</time>
      </trkpt>
      <trkpt lat="44.20447" lon="2.41266">
        <ele>609.6</ele>
        <time>2017-01-10T15:04:00.000Z</time>
      </trkpt>
      <trkpt lat="44.20439" lon="2.4126">
        <ele>608.7</ele>
        <time>2017-01-10T15:04:07.000Z</time>
      </trkpt>
      <trkpt lat="44.2043" lon="2.41255">
        <ele>607.7</ele>
        <time>2017-01-10T15:04:15.000Z</time>
      </trkpt>
      <trkpt lat="44.20421" lon="2.4125">
        <ele>607.2</ele>
        <time>2017-01-10T15:04:23.000Z</time>
      </trkpt>
      <trkpt lat="44.20411" lon="2.41247">
        <ele>607.2</ele>
        <time>2017-01-10T15:04:31.000Z</time>
      </trkpt>
      <trkpt lat="44.20402" lon="2.41243">
        <ele>606.7</ele>
        <time>2017-01-10T15:04:39.000Z</time>
      </trkpt>
      <trkpt lat="44.20391" lon="2.41241">
        <ele>606.2</ele>
        <time>2017-01-10T15:04:47.000Z</time>
      </trkpt>
      <trkpt lat="44.20381" lon="2.41238">
        <ele>606.2</ele>
        <time>2017-01-10T15:04:56.000Z</time>
      </trkpt>
      <trkpt lat="44.2037" lon="2.41236">
        <ele>605.3</ele>
        <time>2017-01-10T15:05:06.000Z</time>
      </trkpt>
      <trkpt lat="44.20359" lon="2.41236">
        <ele>605.3</ele>
        <time>2017-01-10T15:05:15.000Z</time>
      </trkpt>
      <trkpt lat="44.20348" lon="2.41236">
        <ele>604.3</ele>
        <time>2017-01-10T15:05:24.000Z</time>
      </trkpt>
      <trkpt lat="44.20336" lon="2.41236">
        <ele>604.3</ele>
        <time>2017-01-10T15:05:33.000Z</time>
      </trkpt>
      <trkpt lat="44.20326" lon="2.41236">
        <ele>604.3</ele>
        <time>2017-01-10T15:05:41.000Z</time>
      </trkpt>
      <trkpt lat="44.20316" lon="2.41235">
        <ele>603.8</ele>
        <time>2017-01-10T15:05:50.000Z</time>
      </trkpt>
      <trkpt lat="44.20307" lon="2.41235">
        <ele>603.8</ele>
        <time>2017-01-10T15:05:58.000Z</time>
      </trkpt>
      <trkpt lat="44.20295" lon="2.41234">
        <ele>603.8</ele>
        <time>2017-01-10T15:06:07.000Z</time>
      </trkpt>
      <trkpt lat="44.20285" lon="2.41235">
        <ele>603.4</ele>
        <time>2017-01-10T15:06:16.000Z</time>
      </trkpt>
      <trkpt lat="44.20274" lon="2.41232">
        <ele>603.4</ele>
        <time>2017-01-10T15:06:25.000Z</time>
      </trkpt>
      <trkpt lat="44.20263" lon="2.4123">
        <ele>602.9</ele>
        <time>2017-01-10T15:06:33.000Z</time>
      </trkpt>
      <trkpt lat="44.20252" lon="2.41227">
        <ele>601.9</ele>
        <time>2017-01-10T15:06:42.000Z</time>
      </trkpt>
      <trkpt lat="44.20242" lon="2.41224">
        <ele>601.9</ele>
        <time>2017-01-10T15:06:50.000Z</time>
      </trkpt>
      <trkpt lat="44.20232" lon="2.41221">
        <ele>601.9</ele>
        <time>2017-01-10T15:06:58.000Z</time>
      </trkpt>
      <trkpt lat="44.20223" lon="2.41218">
        <ele>601.4</ele>
        <time>2017-01-10T15:07:05.000Z</time>
      </trkpt>
      <trkpt lat="44.20213" lon="2.41215">
        <ele>601.4</ele>
        <time>2017-01-10T15:07:13.000Z</time>
      </trkpt>
      <trkpt lat="44.20202" lon="2.41213">
        <ele>601</ele>
        <time>2017-01-10T15:07:21.000Z</time>
      </trkpt>
      <trkpt lat="44.20193" lon="2.41213">
        <ele>600.5</ele>
        <time>2017-01-10T15:07:29.000Z</time>
      </trkpt>
      <trkpt lat="44.20184" lon="2.41214">
        <ele>600</ele>
        <time>2017-01-10T15:07:37.000Z</time>
      </trkpt>
      <trkpt lat="44.20174" lon="2.41214">
        <ele>599.5</ele>
        <time>2017-01-10T15:07:45.000Z</time>
      </trkpt>
      <trkpt lat="44.20164" lon="2.41216">
        <ele>598.6</ele>
        <time>2017-01-10T15:07:53.000Z</time>
      </trkpt>
      <trkpt lat="44.20154" lon="2.41217">
        <ele>598.6</ele>
        <time>2017-01-10T15:08:01.000Z</time>
      </trkpt>
      <trkpt lat="44.20144" lon="2.41218">
        <ele>597.6</ele>
        <time>2017-01-10T15:08:09.000Z</time>
      </trkpt>
      <trkpt lat="44.20135" lon="2.41219">
        <ele>597.6</ele>
        <time>2017-01-10T15:08:16.000Z</time>
      </trkpt>
      <trkpt lat="44.20125" lon="2.4122">
        <ele>597.6</ele>
        <time>2017-01-10T15:08:24.000Z</time>
      </trkpt>
      <trkpt lat="44.20115" lon="2.4122">
        <ele>597.1</ele>
        <time>2017-01-10T15:08:32.000Z</time>
      </trkpt>
      <trkpt lat="44.20106" lon="2.41219">
        <ele>596.6</ele>
        <time>2017-01-10T15:08:39.000Z</time>
      </trkpt>
      <trkpt lat="44.20097" lon="2.41219">
        <ele>596.2</ele>
        <time>2017-01-10T15:08:47.000Z</time>
      </trkpt>
      <trkpt lat="44.20087" lon="2.41215">
        <ele>595.7</ele>
        <time>2017-01-10T15:08:55.000Z</time>
      </trkpt>
      <trkpt lat="44.20078" lon="2.41213">
        <ele>595.2</ele>
        <time>2017-01-10T15:09:02.000Z</time>
      </trkpt>
      <trkpt lat="44.20068" lon="2.41211">
        <ele>594.7</ele>
        <time>2017-01-10T15:09:10.000Z</time>
      </trkpt>
      <trkpt lat="44.20058" lon="2.41209">
        <ele>594.2</ele>
        <time>2017-01-10T15:09:18.000Z</time>
      </trkpt>
      <trkpt lat="44.20049" lon="2.41207">
        <ele>593.3</ele>
        <time>2017-01-10T15:09:25.000Z</time>
      </trkpt>
      <trkpt lat="44.20039" lon="2.41204">
        <ele>593.7</ele>
        <time>2017-01-10T15:09:32.000Z</time>
      </trkpt>
      <trkpt lat="44.2003" lon="2.41202">
        <ele>593.3</ele>
        <time>2017-01-10T15:09:39.000Z</time>
      </trkpt>
      <trkpt lat="44.2002" lon="2.41199">
        <ele>592.8</ele>
        <time>2017-01-10T15:09:46.000Z</time>
      </trkpt>
      <trkpt lat="44.20011" lon="2.41198">
        <ele>592.3</ele>
        <time>2017-01-10T15:09:53.000Z</time>
      </trkpt>
      <trkpt lat="44.2" lon="2.41195">
        <ele>591.8</ele>
        <time>2017-01-10T15:10:01.000Z</time>
      </trkpt>
      <trkpt lat="44.1999" lon="2.41193">
        <ele>591.3</ele>
        <time>2017-01-10T15:10:09.000Z</time>
      </trkpt>
      <trkpt lat="44.19981" lon="2.4119">
        <ele>591.3</ele>
        <time>2017-01-10T15:10:16.000Z</time>
      </trkpt>
      <trkpt lat="44.19972" lon="2.41189">
        <ele>590.9</ele>
        <time>2017-01-10T15:10:23.000Z</time>
      </trkpt>
      <trkpt lat="44.19962" lon="2.41187">
        <ele>590.9</ele>
        <time>2017-01-10T15:10:30.000Z</time>
      </trkpt>
      <trkpt lat="44.19953" lon="2.41186">
        <ele>590.4</ele>
        <time>2017-01-10T15:10:37.000Z</time>
      </trkpt>
      <trkpt lat="44.19944" lon="2.41184">
        <ele>589.4</ele>
        <time>2017-01-10T15:10:44.000Z</time>
      </trkpt>
      <trkpt lat="44.19934" lon="2.41183">
        <ele>589.4</ele>
        <time>2017-01-10T15:10:52.000Z</time>
      </trkpt>
      <trkpt lat="44.19925" lon="2.41181">
        <ele>589</ele>
        <time>2017-01-10T15:10:59.000Z</time>
      </trkpt>
      <trkpt lat="44.19915" lon="2.41179">
        <ele>588</ele>
        <time>2017-01-10T15:11:07.000Z</time>
      </trkpt>
      <trkpt lat="44.19905" lon="2.41176">
        <ele>588</ele>
        <time>2017-01-10T15:11:15.000Z</time>
      </trkpt>
      <trkpt lat="44.19896" lon="2.41176">
        <ele>587.5</ele>
        <time>2017-01-10T15:11:22.000Z</time>
      </trkpt>
      <trkpt lat="44.19886" lon="2.41176">
        <ele>587</ele>
        <time>2017-01-10T15:11:30.000Z</time>
      </trkpt>
      <trkpt lat="44.19877" lon="2.41181">
        <ele>587</ele>
        <time>2017-01-10T15:11:38.000Z</time>
      </trkpt>
      <trkpt lat="44.19867" lon="2.41187">
        <ele>586.5</ele>
        <time>2017-01-10T15:11:46.000Z</time>
      </trkpt>
      <trkpt lat="44.19858" lon="2.41193">
        <ele>586.1</ele>
        <time>2017-01-10T15:11:54.000Z</time>
      </trkpt>
      <trkpt lat="44.19849" lon="2.41193">
        <ele>586.1</ele>
        <time>2017-01-10T15:12:01.000Z</time>
      </trkpt>
      <trkpt lat="44.19838" lon="2.41189">
        <ele>585.6</ele>
        <time>2017-01-10T15:12:09.000Z</time>
      </trkpt>
      <trkpt lat="44.1983" lon="2.41181">
        <ele>584.1</ele>
        <time>2017-01-10T15:12:17.000Z</time>
      </trkpt>
      <trkpt lat="44.19821" lon="2.41173">
        <ele>583.7</ele>
        <time>2017-01-10T15:12:25.000Z</time>
      </trkpt>
      <trkpt lat="44.19811" lon="2.41165">
        <ele>582.2</ele>
        <time>2017-01-10T15:12:33.000Z</time>
      </trkpt>
      <trkpt lat="44.19802" lon="2.4116">
        <ele>581.7</ele>
        <time>2017-01-10T15:12:41.000Z</time>
      </trkpt>
      <trkpt lat="44.19792" lon="2.41157">
        <ele>580.8</ele>
        <time>2017-01-10T15:12:49.000Z</time>
      </trkpt>
      <trkpt lat="44.19783" lon="2.41154">
        <ele>580.3</ele>
        <time>2017-01-10T15:12:56.000Z</time>
      </trkpt>
      <trkpt lat="44.19773" lon="2.41152">
        <ele>579.3</ele>
        <time>2017-01-10T15:13:04.000Z</time>
      </trkpt>
      <trkpt lat="44.19763" lon="2.4115">
        <ele>578.8</ele>
        <time>2017-01-10T15:13:11.000Z</time>
      </trkpt>
      <trkpt lat="44.19754" lon="2.41147">
        <ele>578.8</ele>
        <time>2017-01-10T15:13:18.000Z</time>
      </trkpt>
      <trkpt lat="44.19743" lon="2.41146">
        <ele>578.4</ele>
        <time>2017-01-10T15:13:26.000Z</time>
      </trkpt>
      <trkpt lat="44.19732" lon="2.41145">
        <ele>577.4</ele>
        <time>2017-01-10T15:13:35.000Z</time>
      </trkpt>
      <trkpt lat="44.19721" lon="2.41145">
        <ele>576.5</ele>
        <time>2017-01-10T15:13:44.000Z</time>
      </trkpt>
      <trkpt lat="44.19711" lon="2.41146">
        <ele>576.5</ele>
        <time>2017-01-10T15:13:52.000Z</time>
      </trkpt>
      <trkpt lat="44.19701" lon="2.41149">
        <ele>576</ele>
        <time>2017-01-10T15:14:00.000Z</time>
      </trkpt>
      <trkpt lat="44.1969" lon="2.41151">
        <ele>575</ele>
        <time>2017-01-10T15:14:09.000Z</time>
      </trkpt>
      <trkpt lat="44.19679" lon="2.41153">
        <ele>574.5</ele>
        <time>2017-01-10T15:14:19.000Z</time>
      </trkpt>
      <trkpt lat="44.19666" lon="2.41156">
        <ele>574</ele>
        <time>2017-01-10T15:14:30.000Z</time>
      </trkpt>
      <trkpt lat="44.19655" lon="2.41158">
        <ele>573.6</ele>
        <time>2017-01-10T15:14:38.000Z</time>
      </trkpt>
      <trkpt lat="44.19643" lon="2.4116">
        <ele>573.6</ele>
        <time>2017-01-10T15:14:47.000Z</time>
      </trkpt>
      <trkpt lat="44.19632" lon="2.41162">
        <ele>573.6</ele>
        <time>2017-01-10T15:14:55.000Z</time>
      </trkpt>
      <trkpt lat="44.19621" lon="2.41165">
        <ele>573.6</ele>
        <time>2017-01-10T15:15:04.000Z</time>
      </trkpt>
      <trkpt lat="44.1961" lon="2.4117">
        <ele>573.1</ele>
        <time>2017-01-10T15:15:12.000Z</time>
      </trkpt>
      <trkpt lat="44.196" lon="2.41175">
        <ele>572.1</ele>
        <time>2017-01-10T15:15:20.000Z</time>
      </trkpt>
      <trkpt lat="44.19592" lon="2.41185">
        <ele>571.6</ele>
        <time>2017-01-10T15:15:28.000Z</time>
      </trkpt>
      <trkpt lat="44.19585" lon="2.41195">
        <ele>571.6</ele>
        <time>2017-01-10T15:15:36.000Z</time>
      </trkpt>
      <trkpt lat="44.19578" lon="2.41205">
        <ele>571.2</ele>
        <time>2017-01-10T15:15:44.000Z</time>
      </trkpt>
      <trkpt lat="44.19571" lon="2.41215">
        <ele>571.2</ele>
        <time>2017-01-10T15:15:52.000Z</time>
      </trkpt>
      <trkpt lat="44.19564" lon="2.41223">
        <ele>570.7</ele>
        <time>2017-01-10T15:15:59.000Z</time>
      </trkpt>
      <trkpt lat="44.19557" lon="2.41233">
        <ele>570.2</ele>
        <time>2017-01-10T15:16:07.000Z</time>
      </trkpt>
      <trkpt lat="44.1955" lon="2.41243">
        <ele>570.2</ele>
        <time>2017-01-10T15:16:15.000Z</time>
      </trkpt>
      <trkpt lat="44.19543" lon="2.41252">
        <ele>570.2</ele>
        <time>2017-01-10T15:16:22.000Z</time>
      </trkpt>
      <trkpt lat="44.19536" lon="2.41261">
        <ele>570.2</ele>
        <time>2017-01-10T15:16:30.000Z</time>
      </trkpt>
      <trkpt lat="44.19529" lon="2.4127">
        <ele>569.7</ele>
        <time>2017-01-10T15:16:38.000Z</time>
      </trkpt>
      <trkpt lat="44.19521" lon="2.4128">
        <ele>569.7</ele>
        <time>2017-01-10T15:16:46.000Z</time>
      </trkpt>
      <trkpt lat="44.19513" lon="2.41289">
        <ele>569.2</ele>
        <time>2017-01-10T15:16:54.000Z</time>
      </trkpt>
      <trkpt lat="44.19507" lon="2.413">
        <ele>568.8</ele>
        <time>2017-01-10T15:17:02.000Z</time>
      </trkpt>
      <trkpt lat="44.19501" lon="2.41308">
        <ele>568.8</ele>
        <time>2017-01-10T15:17:10.000Z</time>
      </trkpt>
      <trkpt lat="44.19494" lon="2.41318">
        <ele>568.3</ele>
        <time>2017-01-10T15:17:18.000Z</time>
      </trkpt>
      <trkpt lat="44.19488" lon="2.41329">
        <ele>568.3</ele>
        <time>2017-01-10T15:17:26.000Z</time>
      </trkpt>
      <trkpt lat="44.19483" lon="2.41342">
        <ele>568.3</ele>
        <time>2017-01-10T15:17:34.000Z</time>
      </trkpt>
      <trkpt lat="44.19477" lon="2.41352">
        <ele>568.3</ele>
        <time>2017-01-10T15:17:42.000Z</time>
      </trkpt>
      <trkpt lat="44.19471" lon="2.41363">
        <ele>568.3</ele>
        <time>2017-01-10T15:17:50.000Z</time>
      </trkpt>
      <trkpt lat="44.19465" lon="2.41374">
        <ele>567.3</ele>
        <time>2017-01-10T15:17:58.000Z</time>
      </trkpt>
      <trkpt lat="44.19459" lon="2.41384">
        <ele>567.3</ele>
        <time>2017-01-10T15:18:06.000Z</time>
      </trkpt>
      <trkpt lat="44.19452" lon="2.41394">
        <ele>567.3</ele>
        <time>2017-01-10T15:18:14.000Z</time>
      </trkpt>
      <trkpt lat="44.19443" lon="2.41402">
        <ele>567.3</ele>
        <time>2017-01-10T15:18:23.000Z</time>
      </trkpt>
      <trkpt lat="44.19434" lon="2.41412">
        <ele>567.3</ele>
        <time>2017-01-10T15:18:33.000Z</time>
      </trkpt>
      <trkpt lat="44.19425" lon="2.4142">
        <ele>567.3</ele>
        <time>2017-01-10T15:18:42.000Z</time>
      </trkpt>
      <trkpt lat="44.19416" lon="2.41429">
        <ele>567.3</ele>
        <time>2017-01-10T15:18:52.000Z</time>
      </trkpt>
      <trkpt lat="44.19407" lon="2.41439">
        <ele>567.3</ele>
        <time>2017-01-10T15:19:01.000Z</time>
      </trkpt>
      <trkpt lat="44.19398" lon="2.41449">
        <ele>567.3</ele>
        <time>2017-01-10T15:19:10.000Z</time>
      </trkpt>
      <trkpt lat="44.1939" lon="2.41458">
        <ele>567.3</ele>
        <time>2017-01-10T15:19:19.000Z</time>
      </trkpt>
      <trkpt lat="44.19381" lon="2.41466">
        <ele>567.3</ele>
        <time>2017-01-10T15:19:31.000Z</time>
      </trkpt>
      <trkpt lat="44.19374" lon="2.41477">
        <ele>567.3</ele>
        <time>2017-01-10T15:19:43.000Z</time>
      </trkpt>
      <trkpt lat="44.19372" lon="2.41489">
        <ele>567.3</ele>
        <time>2017-01-10T15:19:54.000Z</time>
      </trkpt>
      <trkpt lat="44.19371" lon="2.41501">
        <ele>566.8</ele>
        <time>2017-01-10T15:20:03.000Z</time>
      </trkpt>
      <trkpt lat="44.1937" lon="2.4151">
        <ele>566.8</ele>
        <time>2017-01-10T15:20:14.000Z</time>
      </trkpt>
      <trkpt lat="44.19377" lon="2.41518">
        <ele>566.8</ele>
        <time>2017-01-10T15:20:22.000Z</time>
      </trkpt>
      <trkpt lat="44.19384" lon="2.41529">
        <ele>566.8</ele>
        <time>2017-01-10T15:20:30.000Z</time>
      </trkpt>
      <trkpt lat="44.1939" lon="2.41541">
        <ele>566.8</ele>
        <time>2017-01-10T15:20:38.000Z</time>
      </trkpt>
      <trkpt lat="44.19397" lon="2.4155">
        <ele>566.8</ele>
        <time>2017-01-10T15:20:46.000Z</time>
      </trkpt>
      <trkpt lat="44.19405" lon="2.41558">
        <ele>565.9</ele>
        <time>2017-01-10T15:20:54.000Z</time>
      </trkpt>
      <trkpt lat="44.19413" lon="2.41561">
        <ele>565.9</ele>
        <time>2017-01-10T15:21:02.000Z</time>
      </trkpt>
      <trkpt lat="44.19418" lon="2.41564">
        <ele>564.9</ele>
        <time>2017-01-10T15:21:33.000Z</time>
      </trkpt>
    </trkseg>
  </trk>
</gpx>